Observation data for Boys Ranch on 08/14/2019      Previous  Date  Next       Current Mesonet Observations  Soil Data  Daily Summary Page  Observations in Plain Language
KBY1 140500Z 11004KT 24/19 A3016 RMK A01 T02360191  RH  076%=      5-min Rain = 0
KBY1 140501Z 11003KT 24/19 A3016 RMK A01 T02360190  RH  075%=      5-min Rain = 0
KBY1 140502Z 11004KT 24/19 A3016 RMK A01 T02360190  RH  075%=      5-min Rain = 0
KBY1 140503Z 11003KT 24/19 A3016 RMK A01 T02360190  RH  075%=      5-min Rain = 0
KBY1 140504Z 11004KT 24/19 A3017 RMK A01 T02360190  RH  075%=      5-min Rain = 0
KBY1 140505Z 10003KT 24/19 A3017 RMK A01 T02360191  RH  076%=      5-min Rain = 0
KBY1 140506Z 11004KT 24/19 A3017 RMK A01 T02360192  RH  077%=      5-min Rain = 0
KBY1 140507Z 10005KT 24/19 A3017 RMK A01 T02350192  RH  076%=      5-min Rain = 0
KBY1 140508Z 10004KT 24/19 A3017 RMK A01 T02350191  RH  076%=      5-min Rain = 0
KBY1 140509Z 10004KT 24/19 A3017 RMK A01 T02350192  RH  077%=      5-min Rain = 0
KBY1 140510Z 09004KT 24/19 A3017 RMK A01 T02350192  RH  077%=      5-min Rain = 0
KBY1 140522Z 08008KT 25/19 A3021 RMK A01 T02450192  RH  072%=      5-min Rain = 0
KBY1 140523Z 08007KT 25/19 A3021 RMK A01 T02460192  RH  072%=      5-min Rain = 0
KBY1 140524Z 09006KT 25/19 A302 RMK A01 T02460193  RH  072%=      5-min Rain = 0
KBY1 140525Z 09005KT 25/19 A302 RMK A01 T02460193  RH  072%=      5-min Rain = 0
KBY1 140526Z 10005KT 25/19 A302 RMK A01 T02460192  RH  072%=      5-min Rain = 0
KBY1 140527Z 11004KT 25/19 A302 RMK A01 T02470192  RH  071%=      5-min Rain = 0
KBY1 140528Z 11005KT 25/19 A302 RMK A01 T02470192  RH  071%=      5-min Rain = 0
KBY1 140529Z 12004KT 25/19 A302 RMK A01 T02470192  RH  071%=      5-min Rain = 0
KBY1 140530Z 12004KT 25/19 A302 RMK A01 T02470192  RH  072%=      5-min Rain = 0
KBY1 140531Z 10005KT 25/19 A302 RMK A01 T02470192  RH  072%=      5-min Rain = 0
KBY1 140532Z 11005KT 25/19 A302 RMK A01 T02470192  RH  071%=      5-min Rain = 0
KBY1 140533Z 12004KT 25/19 A302 RMK A01 T02470192  RH  071%=      5-min Rain = 0
KBY1 140534Z 10005KT 25/19 A302 RMK A01 T02470191  RH  071%=      5-min Rain = 0
KBY1 140535Z 11006KT 25/19 A302 RMK A01 T02470191  RH  071%=      5-min Rain = 0
KBY1 140536Z 11008KT 25/19 A302 RMK A01 T02470190  RH  071%=      5-min Rain = 0
KBY1 140537Z 11007KT 25/19 A302 RMK A01 T02480191  RH  070%=      5-min Rain = 0
KBY1 140538Z 11006KT 25/19 A302 RMK A01 T02480191  RH  070%=      5-min Rain = 0
KBY1 140539Z 11007KT 25/19 A302 RMK A01 T02480191  RH  071%=      5-min Rain = 0
KBY1 140540Z 12006KT 25/19 A302 RMK A01 T02480191  RH  070%=      5-min Rain = 0
KBY1 140541Z 11006KT 25/19 A302 RMK A01 T02480191  RH  070%=      5-min Rain = 0
KBY1 140542Z 12005KT 25/19 A302 RMK A01 T02480191  RH  071%=      5-min Rain = 0
KBY1 140543Z 13005KT 25/19 A302 RMK A01 T02480192  RH  071%=      5-min Rain = 0
KBY1 140544Z 13006KT 25/19 A302 RMK A01 T02480191  RH  071%=      5-min Rain = 0
KBY1 140545Z 13006KT 25/19 A302 RMK A01 T02470191  RH  071%=      5-min Rain = 0
KBY1 140546Z 13006KT 25/19 A302 RMK A01 T02470191  RH  071%=      5-min Rain = 0
KBY1 140547Z 12007KT 25/19 A302 RMK A01 T02470191  RH  071%=      5-min Rain = 0
KBY1 140548Z 12008KT 25/19 A302 RMK A01 T02470191  RH  071%=      5-min Rain = 0
KBY1 140549Z 12007KT 25/19 A302 RMK A01 T02460190  RH  071%=      5-min Rain = 0
KBY1 140550Z 12006KT 25/19 A302 RMK A01 T02460191  RH  071%=      5-min Rain = 0
KBY1 140551Z 11007KT 25/19 A302 RMK A01 T02460191  RH  072%=      5-min Rain = 0
KBY1 140552Z 11006KT 25/19 A302 RMK A01 T02460191  RH  072%=      5-min Rain = 0
KBY1 140553Z 11007KT 25/19 A302 RMK A01 T02450191  RH  072%=      5-min Rain = 0
KBY1 140554Z 10007KT 25/19 A302 RMK A01 T02450191  RH  072%=      5-min Rain = 0
KBY1 140555Z 10006KT 25/19 A3021 RMK A01 T02450191  RH  072%=      5-min Rain = 0
KBY1 140556Z 08007KT 24/19 A3021 RMK A01 T02440191  RH  072%=      5-min Rain = 0
KBY1 140557Z 09007KT 24/19 A3021 RMK A01 T02440191  RH  072%=      5-min Rain = 0
KBY1 140558Z 08009KT 24/19 A3021 RMK A01 T02440191  RH  072%=      5-min Rain = 0
KBY1 140559Z 07007KT 24/19 A3021 RMK A01 T02440190  RH  072%=      5-min Rain = 0
KBY1 140600Z 08008KT 25/19 A3022 RMK A01 T02450190  RH  071%=      5-min Rain = 0
KBY1 140601Z 06007KT 25/19 A3022 RMK A01 T02460190  RH  071%=      5-min Rain = 0
KBY1 140602Z 05008KT 25/19 A3022 RMK A01 T02470191  RH  071%=      5-min Rain = 0
KBY1 140603Z 05010KT 25/19 A3022 RMK A01 T02470191  RH  071%=      5-min Rain = 0
KBY1 140604Z 04010KT 25/19 A3023 RMK A01 T02480191  RH  071%=      5-min Rain = 0
KBY1 140605Z 05013G19KT 25/19 A3023 RMK A01 T02480191  RH  070%=      5-min Rain = 0
KBY1 140606Z 05018KT 25/18 A3023 RMK A01 T02460177  RH  065%=      5-min Rain = 0
KBY1 140607Z 05016G24KT 24/17 A3023 RMK A01 T02390169  RH  065%=      5-min Rain = 0
KBY1 140608Z 06017G24KT 23/17 A3023 RMK A01 T02340166  RH  065%=      5-min Rain = 0
KBY1 140609Z 06020KT 23/16 A3022 RMK A01 T02310164  RH  066%=      5-min Rain = 0
KBY1 140610Z 07015KT 23/16 A3022 RMK A01 T02290163  RH  066%=      5-min Rain = 0
KBY1 140611Z 07017G22KT 23/16 A3022 RMK A01 T02280163  RH  067%=      5-min Rain = 0
KBY1 140612Z 07016G21KT 23/16 A3022 RMK A01 T02280162  RH  067%=      5-min Rain = 0
KBY1 140613Z 08015KT 23/16 A3022 RMK A01 T02270162  RH  067%=      5-min Rain = 0
KBY1 140614Z 07014G20KT 23/16 A3022 RMK A01 T02260162  RH  067%=      5-min Rain = 0
KBY1 140615Z 07016G21KT 23/16 A3022 RMK A01 T02260162  RH  067%=      5-min Rain = 0
KBY1 140616Z 08021KT 23/16 A3022 RMK A01 T02260161  RH  067%=      5-min Rain = 0
KBY1 140617Z 07018KT 23/16 A3023 RMK A01 T02260160  RH  066%=      5-min Rain = 0
KBY1 140618Z 08021G27KT 23/16 A3023 RMK A01 T02260159  RH  066%=      5-min Rain = 0
KBY1 140619Z 08015G23KT 23/16 A3023 RMK A01 T02260158  RH  066%=      5-min Rain = 0
KBY1 140620Z 07015G20KT 23/16 A3023 RMK A01 T02250159  RH  066%=      5-min Rain = 0
KBY1 140621Z 07014KT 23/16 A3023 RMK A01 T02250158  RH  066%=      5-min Rain = 0
KBY1 140622Z 08014KT 23/16 A3023 RMK A01 T02250158  RH  066%=      5-min Rain = 0
KBY1 140623Z 08014KT 22/16 A3023 RMK A01 T02240157  RH  066%=      5-min Rain = 0
KBY1 140624Z 08016G21KT 22/16 A3023 RMK A01 T02230156  RH  066%=      5-min Rain = 0
KBY1 140625Z 07016KT 22/16 A3024 RMK A01 T02230155  RH  065%=      5-min Rain = 0
KBY1 140626Z 08016G21KT 22/15 A3024 RMK A01 T02230154  RH  065%=      5-min Rain = 0
KBY1 140627Z 08019G24KT 22/15 A3024 RMK A01 T02230154  RH  065%=      5-min Rain = 0
KBY1 140628Z 07018G24KT 22/15 A3024 RMK A01 T02220154  RH  065%=      5-min Rain = 0
KBY1 140629Z 08018KT 22/15 A3024 RMK A01 T02220153  RH  065%=      5-min Rain = 0
KBY1 140630Z 08013KT 22/15 A3024 RMK A01 T02220154  RH  065%=      5-min Rain = 0
KBY1 140631Z 07016G23KT 22/15 A3024 RMK A01 T02210154  RH  066%=      5-min Rain = 0
KBY1 140632Z 07016G21KT 22/15 A3024 RMK A01 T02210153  RH  065%=      5-min Rain = 0
KBY1 140633Z 07017G22KT 22/15 A3024 RMK A01 T02210153  RH  065%=      5-min Rain = 0
KBY1 140634Z 08016G22KT 22/15 A3024 RMK A01 T02210152  RH  065%=      5-min Rain = 0
KBY1 140635Z 09019G24KT 22/15 A3024 RMK A01 T02210152  RH  065%=      5-min Rain = 0
KBY1 140636Z 08016KT 22/15 A3024 RMK A01 T02200151  RH  065%=      5-min Rain = 0
KBY1 140637Z 08017KT 22/15 A3024 RMK A01 T02200151  RH  065%=      5-min Rain = 0
KBY1 140638Z 08013KT 22/15 A3024 RMK A01 T02190151  RH  065%=      5-min Rain = 0
KBY1 140639Z 08015KT 22/15 A3024 RMK A01 T02200152  RH  065%=      5-min Rain = 0
KBY1 140640Z 08013KT 22/15 A3023 RMK A01 T02190152  RH  066%=      5-min Rain = 0
KBY1 140641Z 08011KT 22/15 A3023 RMK A01 T02190152  RH  066%=      5-min Rain = 0
KBY1 140642Z 07014KT 22/15 A3023 RMK A01 T02190152  RH  066%=      5-min Rain = 0
KBY1 140643Z 07015KT 22/15 A3023 RMK A01 T02180151  RH  066%=      5-min Rain = 0
KBY1 140644Z 07016KT 22/15 A3024 RMK A01 T02180151  RH  065%=      5-min Rain = 0
KBY1 140645Z 08014KT 22/15 A3024 RMK A01 T02170150  RH  066%=      5-min Rain = 0
KBY1 140646Z 07013KT 22/15 A3024 RMK A01 T02170150  RH  066%=      5-min Rain = 0
KBY1 140647Z 07015G22KT 22/15 A3024 RMK A01 T02170150  RH  066%=      5-min Rain = 0
KBY1 140648Z 08014KT 22/15 A3024 RMK A01 T02160149  RH  066%=      5-min Rain = 0
KBY1 140649Z 08015G20KT 22/15 A3024 RMK A01 T02160150  RH  066%=      5-min Rain = 0
KBY1 140650Z 08017KT 22/15 A3024 RMK A01 T02150149  RH  066%=      5-min Rain = 0
KBY1 140651Z 07014KT 22/15 A3024 RMK A01 T02150149  RH  066%=      5-min Rain = 0
KBY1 140652Z 07011KT 22/15 A3024 RMK A01 T02150150  RH  066%=      5-min Rain = 0
KBY1 140653Z 07014KT 21/15 A3024 RMK A01 T02140149  RH  066%=      5-min Rain = 0
KBY1 140654Z 08012KT 21/15 A3024 RMK A01 T02140148  RH  066%=      5-min Rain = 0
KBY1 140655Z 08015G20KT 21/15 A3023 RMK A01 T02140148  RH  066%=      5-min Rain = 0
KBY1 140656Z 08015KT 21/15 A3023 RMK A01 T02130147  RH  066%=      5-min Rain = 0
KBY1 140657Z 08017KT 21/15 A3023 RMK A01 T02130146  RH  066%=      5-min Rain = 0
KBY1 140658Z 08016KT 21/14 A3023 RMK A01 T02120144  RH  065%=      5-min Rain = 0
KBY1 140659Z 10013KT 21/14 A3023 RMK A01 T02120144  RH  065%=      5-min Rain = 0
KBY1 140700Z 10015KT 21/14 A3023 RMK A01 T02120144  RH  065%=      5-min Rain = 0
KBY1 140701Z 09016G22KT 21/14 A3023 RMK A01 T02110143  RH  065%=      5-min Rain = 0
KBY1 140702Z 09019KT 21/14 A3023 RMK A01 T02100141  RH  065%=      5-min Rain = 0
KBY1 140703Z 09014G19KT 21/14 A3023 RMK A01 T02100141  RH  065%=      5-min Rain = 0
KBY1 140704Z 09016KT 21/14 A3023 RMK A01 T02090141  RH  065%=      5-min Rain = 0
KBY1 140705Z 09015KT 21/14 A3022 RMK A01 T02080140  RH  065%=      5-min Rain = 0
KBY1 140706Z 08017KT 21/14 A3022 RMK A01 T02080139  RH  065%=      5-min Rain = 0
KBY1 140707Z 08016KT 21/14 A3022 RMK A01 T02070139  RH  065%=      5-min Rain = 0
KBY1 140708Z 09015KT 21/14 A3022 RMK A01 T02070140  RH  065%=      5-min Rain = 0
KBY1 140709Z 09016KT 21/14 A3022 RMK A01 T02060139  RH  065%=      5-min Rain = 0
KBY1 140710Z 09016G21KT 21/14 A3022 RMK A01 T02060139  RH  066%=      5-min Rain = 0
KBY1 140711Z 09015G20KT 21/14 A3022 RMK A01 T02050139  RH  066%=      5-min Rain = 0
KBY1 140712Z 09013G19KT 21/14 A3022 RMK A01 T02050139  RH  066%=      5-min Rain = 0
KBY1 140713Z 09015G20KT 20/14 A3022 RMK A01 T02040139  RH  066%=      5-min Rain = 0
KBY1 140714Z 10016KT 20/14 A3022 RMK A01 T02030138  RH  066%=      5-min Rain = 0
KBY1 140715Z 09012G18KT 20/14 A3022 RMK A01 T02030138  RH  066%=      5-min Rain = 0
KBY1 140716Z 09013KT 20/14 A3022 RMK A01 T02030139  RH  067%=      5-min Rain = 0
KBY1 140717Z 09014KT 20/14 A3022 RMK A01 T02020138  RH  067%=      5-min Rain = 0
KBY1 140718Z 09013G18KT 20/14 A3022 RMK A01 T02020138  RH  067%=      5-min Rain = 0
KBY1 140719Z 09011KT 20/14 A3022 RMK A01 T02020138  RH  067%=      5-min Rain = 0
KBY1 140720Z 09011KT 20/14 A3022 RMK A01 T02010138  RH  067%=      5-min Rain = 0
KBY1 140721Z 09011KT 20/14 A3022 RMK A01 T02010138  RH  067%=      5-min Rain = 0
KBY1 140722Z 09015KT 20/14 A3022 RMK A01 T02010138  RH  067%=      5-min Rain = 0
KBY1 140723Z 09013KT 20/14 A3023 RMK A01 T02010137  RH  067%=      5-min Rain = 0
KBY1 140724Z 09014KT 20/14 A3023 RMK A01 T02010137  RH  067%=      5-min Rain = 0
KBY1 140725Z 08011KT 20/14 A3023 RMK A01 T02010137  RH  067%=      5-min Rain = 0
KBY1 140726Z 10007KT 20/14 A3023 RMK A01 T02000138  RH  067%=      5-min Rain = 0
KBY1 140727Z 09007KT 20/14 A3023 RMK A01 T01990138  RH  068%=      5-min Rain = 0
KBY1 140728Z 09009KT 20/14 A3023 RMK A01 T01990138  RH  068%=      5-min Rain = 0
KBY1 140729Z 09010KT 20/14 A3023 RMK A01 T01980138  RH  068%=      5-min Rain = 0
KBY1 140730Z 09009KT 20/14 A3023 RMK A01 T01980137  RH  068%=      5-min Rain = 0
KBY1 140731Z 09008KT 20/14 A3023 RMK A01 T01980137  RH  068%=      5-min Rain = 0
KBY1 140732Z 09008KT 20/14 A3023 RMK A01 T01990138  RH  068%=      5-min Rain = 0
KBY1 140733Z 09008KT 20/14 A3023 RMK A01 T01980138  RH  068%=      5-min Rain = 0
KBY1 140734Z 08008G13KT 20/14 A3023 RMK A01 T01980138  RH  068%=      5-min Rain = 0
KBY1 140735Z 09009KT 20/14 A3023 RMK A01 T01970137  RH  068%=      5-min Rain = 0
KBY1 140736Z 09009KT 20/14 A3023 RMK A01 T01970137  RH  068%=      5-min Rain = 0
KBY1 140737Z 10008KT 20/14 A3023 RMK A01 T01970137  RH  068%=      5-min Rain = 0
KBY1 140738Z 09011KT 20/14 A3023 RMK A01 T01970137  RH  069%=      5-min Rain = 0
KBY1 140739Z 10010KT 20/14 A3023 RMK A01 T01970136  RH  068%=      5-min Rain = 0
KBY1 140740Z 09010KT 20/14 A3022 RMK A01 T01970136  RH  068%=      5-min Rain = 0
KBY1 140741Z 09012KT 20/14 A3022 RMK A01 T01960136  RH  068%=      5-min Rain = 0
KBY1 140742Z 10009KT 20/14 A3022 RMK A01 T01960135  RH  068%=      5-min Rain = 0
KBY1 140743Z 09010KT 20/14 A3022 RMK A01 T01960135  RH  068%=      5-min Rain = 0
KBY1 140744Z 10012KT 20/14 A3022 RMK A01 T01960135  RH  068%=      5-min Rain = 0
KBY1 140745Z 09009KT 20/14 A3022 RMK A01 T01960135  RH  068%=      5-min Rain = 0
KBY1 140746Z 09010KT 20/13 A3022 RMK A01 T01950134  RH  068%=      5-min Rain = 0
KBY1 140747Z 09010KT 20/13 A3022 RMK A01 T01950134  RH  068%=      5-min Rain = 0
KBY1 140748Z 08009KT 20/13 A3022 RMK A01 T01950133  RH  067%=      5-min Rain = 0
KBY1 140749Z 09008KT 20/13 A3022 RMK A01 T01950134  RH  068%=      5-min Rain = 0
KBY1 140750Z 08006KT 20/13 A3022 RMK A01 T01950134  RH  068%=      5-min Rain = 0
KBY1 140751Z 09007KT 19/13 A3022 RMK A01 T01940134  RH  068%=      5-min Rain = 0
KBY1 140752Z 08006KT 19/13 A3022 RMK A01 T01940134  RH  068%=      5-min Rain = 0
KBY1 140753Z 09008KT 19/13 A3022 RMK A01 T01930134  RH  068%=      5-min Rain = 0
KBY1 140754Z 08008KT 19/13 A3022 RMK A01 T01930133  RH  068%=      5-min Rain = 0
KBY1 140755Z 09008KT 19/13 A3022 RMK A01 T01930132  RH  068%=      5-min Rain = 0
KBY1 140756Z 09008KT 19/13 A3023 RMK A01 T01940132  RH  067%=      5-min Rain = 0
KBY1 140757Z 10007KT 19/13 A3023 RMK A01 T01940133  RH  068%=      5-min Rain = 0
KBY1 140758Z 09006KT 19/13 A3023 RMK A01 T01940132  RH  068%=      5-min Rain = 0
KBY1 140759Z 09007KT 19/13 A3023 RMK A01 T01940133  RH  068%=      5-min Rain = 0
KBY1 140800Z 09009KT 19/13 A3023 RMK A01 T01940131  RH  067%=      5-min Rain = 0
KBY1 140801Z 10007KT 19/13 A3023 RMK A01 T01940131  RH  067%=      5-min Rain = 0
KBY1 140802Z 10007KT 19/13 A3023 RMK A01 T01940131  RH  067%=      5-min Rain = 0
KBY1 140803Z 09005KT 19/13 A3023 RMK A01 T01940132  RH  067%=      5-min Rain = 0
KBY1 140804Z 09005KT 19/13 A3023 RMK A01 T01940134  RH  068%=      5-min Rain = 0
KBY1 140805Z 10007KT 19/13 A3023 RMK A01 T01930133  RH  068%=      5-min Rain = 0
KBY1 140806Z 09006KT 19/13 A3023 RMK A01 T01930132  RH  068%=      5-min Rain = 0
KBY1 140807Z 10005KT 19/13 A3024 RMK A01 T01930132  RH  068%=      5-min Rain = 0
KBY1 140808Z 11005KT 19/13 A3024 RMK A01 T01930132  RH  068%=      5-min Rain = 0
KBY1 140809Z 10004KT 19/13 A3024 RMK A01 T01930133  RH  068%=      5-min Rain = 0
KBY1 140810Z 10007KT 19/13 A3024 RMK A01 T01930132  RH  068%=      5-min Rain = 0
KBY1 140811Z 10006KT 19/13 A3024 RMK A01 T01920130  RH  067%=      5-min Rain = 0
KBY1 140812Z 10005KT 19/13 A3024 RMK A01 T01930131  RH  067%=      5-min Rain = 0
KBY1 140813Z 10005KT 19/13 A3024 RMK A01 T01930132  RH  068%=      5-min Rain = 0
KBY1 140814Z 10005KT 19/13 A3024 RMK A01 T01920132  RH  068%=      5-min Rain = 0
KBY1 140815Z 10004KT 19/13 A3024 RMK A01 T01920133  RH  069%=      5-min Rain = 0
KBY1 140816Z 10004KT 19/13 A3024 RMK A01 T01910133  RH  069%=      5-min Rain = 0
KBY1 140817Z 10006KT 19/13 A3024 RMK A01 T01910133  RH  069%=      5-min Rain = 0
KBY1 140818Z 09006KT 19/13 A3024 RMK A01 T01910133  RH  069%=      5-min Rain = 0
KBY1 140819Z 09005KT 19/13 A3024 RMK A01 T01910133  RH  069%=      5-min Rain = 0
KBY1 140820Z 09004KT 19/13 A3024 RMK A01 T01910133  RH  069%=      5-min Rain = 0
KBY1 140821Z 09004KT 19/13 A3025 RMK A01 T01900133  RH  069%=      5-min Rain = 0
KBY1 140822Z 08005KT 19/13 A3025 RMK A01 T01900133  RH  069%=      5-min Rain = 0
KBY1 140823Z 08005KT 19/13 A3025 RMK A01 T01900132  RH  069%=      5-min Rain = 0
KBY1 140824Z 08004KT 19/13 A3025 RMK A01 T01900132  RH  069%=      5-min Rain = 0
KBY1 140825Z 07004KT 19/13 A3025 RMK A01 T01910132  RH  069%=      5-min Rain = 0
KBY1 140826Z 08004KT 19/13 A3025 RMK A01 T01920132  RH  068%=      5-min Rain = 0
KBY1 140827Z 08006KT 19/13 A3025 RMK A01 T01930131  RH  068%=      5-min Rain = 0
KBY1 140828Z 08005KT 19/13 A3025 RMK A01 T01930130  RH  067%=      5-min Rain = 0
KBY1 140829Z 09004KT 19/13 A3025 RMK A01 T01940132  RH  067%=      5-min Rain = 0
KBY1 140830Z 08005KT 19/13 A3025 RMK A01 T01940131  RH  067%=      5-min Rain = 0
KBY1 140831Z 08007KT 20/13 A3025 RMK A01 T01950131  RH  067%=      5-min Rain = 0
KBY1 140832Z 09006KT 20/13 A3025 RMK A01 T01950130  RH  066%=      5-min Rain = 0
KBY1 140833Z 08007KT 20/13 A3025 RMK A01 T01950130  RH  066%=      5-min Rain = 0
KBY1 140834Z 09007KT 20/13 A3025 RMK A01 T01960131  RH  066%=      5-min Rain = 0
KBY1 140835Z 08007KT 20/13 A3025 RMK A01 T01960129  RH  065%=      5-min Rain = 0
KBY1 140836Z 07007KT 20/13 A3025 RMK A01 T01970130  RH  066%=      5-min Rain = 0
KBY1 140837Z 09005KT 20/13 A3025 RMK A01 T01970132  RH  066%=      5-min Rain = 0
KBY1 140838Z 08005KT 20/13 A3025 RMK A01 T01970132  RH  066%=      5-min Rain = 0
KBY1 140839Z 09004KT 20/13 A3025 RMK A01 T01970131  RH  066%=      5-min Rain = 0
KBY1 140840Z 08006KT 20/13 A3025 RMK A01 T01970132  RH  066%=      5-min Rain = 0
KBY1 140841Z 08005KT 20/13 A3026 RMK A01 T01970131  RH  066%=      5-min Rain = 0
KBY1 140842Z 08005KT 20/13 A3026 RMK A01 T01970132  RH  066%=      5-min Rain = 0
KBY1 140843Z 08004KT 20/13 A3026 RMK A01 T01970132  RH  066%=      5-min Rain = 0
KBY1 140844Z 08004KT 20/13 A3026 RMK A01 T01980133  RH  066%=      5-min Rain = 0
KBY1 140845Z 08004KT 20/13 A3026 RMK A01 T01970133  RH  066%=      5-min Rain = 0
KBY1 140846Z 06004KT 20/13 A3026 RMK A01 T01980133  RH  066%=      5-min Rain = 0
KBY1 140847Z 06006KT 20/13 A3026 RMK A01 T01980131  RH  065%=      5-min Rain = 0
KBY1 140848Z 07005KT 20/13 A3027 RMK A01 T01980130  RH  065%=      5-min Rain = 0
KBY1 140849Z 08006KT 20/13 A3027 RMK A01 T01990130  RH  064%=      5-min Rain = 0
KBY1 140850Z 09005KT 20/13 A3027 RMK A01 T01990128  RH  064%=      5-min Rain = 0
KBY1 140851Z 07007KT 20/13 A3027 RMK A01 T01990128  RH  064%=      5-min Rain = 0
KBY1 140852Z 08005KT 20/13 A3027 RMK A01 T02000129  RH  064%=      5-min Rain = 0
KBY1 140853Z 09004KT 20/13 A3027 RMK A01 T02000130  RH  064%=      5-min Rain = 0
KBY1 140854Z 09004KT 20/13 A3027 RMK A01 T02000131  RH  064%=      5-min Rain = 0
KBY1 140855Z 08004KT 20/13 A3027 RMK A01 T02000131  RH  064%=      5-min Rain = 0
KBY1 140856Z 08004KT 20/13 A3027 RMK A01 T02000130  RH  064%=      5-min Rain = 0
KBY1 140857Z 09004KT 20/13 A3027 RMK A01 T02000129  RH  064%=      5-min Rain = 0
KBY1 140858Z 07003KT 20/13 A3027 RMK A01 T02000129  RH  064%=      5-min Rain = 0
KBY1 140859Z 09004KT 20/13 A3027 RMK A01 T02000130  RH  064%=      5-min Rain = 0
KBY1 140900Z 10003KT 20/13 A3027 RMK A01 T02000131  RH  064%=      5-min Rain = 0
KBY1 140901Z 07004KT 20/13 A3027 RMK A01 T02000131  RH  064%=      5-min Rain = 0
KBY1 140902Z 09005KT 20/13 A3027 RMK A01 T02000129  RH  063%=      5-min Rain = 0
KBY1 140903Z 10005KT 20/13 A3027 RMK A01 T02000128  RH  063%=      5-min Rain = 0
KBY1 140904Z 09005KT 20/13 A3027 RMK A01 T02000128  RH  063%=      5-min Rain = 0
KBY1 140905Z 08008KT 20/13 A3027 RMK A01 T02010129  RH  064%=      5-min Rain = 0
KBY1 140906Z 08007KT 20/13 A3027 RMK A01 T02010127  RH  062%=      5-min Rain = 0
KBY1 140907Z 10005KT 20/13 A3027 RMK A01 T02010128  RH  063%=      5-min Rain = 0
KBY1 140908Z 08006KT 20/13 A3027 RMK A01 T02010129  RH  063%=      5-min Rain = 0
KBY1 140909Z 08007KT 20/13 A3027 RMK A01 T02010128  RH  063%=      5-min Rain = 0
KBY1 140910Z 08009KT 20/13 A3027 RMK A01 T02010126  RH  062%=      5-min Rain = 0
KBY1 140911Z 09008KT 20/13 A3027 RMK A01 T02010128  RH  063%=      5-min Rain = 0
KBY1 140912Z 08007KT 20/13 A3027 RMK A01 T02010127  RH  062%=      5-min Rain = 0
KBY1 140913Z 08007KT 20/13 A3027 RMK A01 T02010128  RH  063%=      5-min Rain = 0
KBY1 140914Z 08008KT 20/13 A3026 RMK A01 T02010127  RH  062%=      5-min Rain = 0
KBY1 140915Z 09008KT 20/13 A3026 RMK A01 T02010128  RH  063%=      5-min Rain = 0
KBY1 140916Z 08007KT 20/13 A3026 RMK A01 T02010128  RH  063%=      5-min Rain = 0
KBY1 140917Z 08007KT 20/13 A3026 RMK A01 T02010128  RH  063%=      5-min Rain = 0
KBY1 140918Z 08008KT 20/13 A3026 RMK A01 T02010128  RH  063%=      5-min Rain = 0
KBY1 140919Z 08007KT 20/13 A3026 RMK A01 T02010128  RH  063%=      5-min Rain = 0
KBY1 140920Z 08007KT 20/13 A3026 RMK A01 T02010128  RH  063%=      5-min Rain = 0
KBY1 140921Z 07007KT 20/13 A3026 RMK A01 T02010128  RH  063%=      5-min Rain = 0
KBY1 140922Z 08007KT 20/13 A3026 RMK A01 T02010129  RH  063%=      5-min Rain = 0
KBY1 140923Z 09007KT 20/13 A3026 RMK A01 T02010129  RH  063%=      5-min Rain = 0
KBY1 140924Z 08009KT 20/13 A3026 RMK A01 T02000127  RH  063%=      5-min Rain = 0
KBY1 140925Z 08008KT 20/13 A3026 RMK A01 T02000126  RH  062%=      5-min Rain = 0
KBY1 140926Z 09007KT 20/13 A3026 RMK A01 T02000127  RH  063%=      5-min Rain = 0
KBY1 140927Z 08008KT 20/13 A3026 RMK A01 T02000126  RH  062%=      5-min Rain = 0
KBY1 140928Z 07006KT 20/13 A3027 RMK A01 T02010126  RH  062%=      5-min Rain = 0
KBY1 140929Z 08005KT 20/13 A3027 RMK A01 T02010127  RH  062%=      5-min Rain = 0
KBY1 140930Z 08006KT 20/13 A3027 RMK A01 T02010126  RH  062%=      5-min Rain = 0
KBY1 140931Z 07005KT 20/13 A3027 RMK A01 T02010126  RH  062%=      5-min Rain = 0
KBY1 140932Z 07005KT 20/13 A3027 RMK A01 T02010127  RH  063%=      5-min Rain = 0
KBY1 140933Z 08004KT 20/13 A3027 RMK A01 T02010129  RH  063%=      5-min Rain = 0
KBY1 140934Z 09008KT 20/13 A3027 RMK A01 T02010127  RH  062%=      5-min Rain = 0
KBY1 140935Z 08007KT 20/13 A3026 RMK A01 T02010126  RH  062%=      5-min Rain = 0
KBY1 140936Z 07007KT 20/13 A3027 RMK A01 T02010126  RH  062%=      5-min Rain = 0
KBY1 140937Z 06007KT 20/13 A3027 RMK A01 T02010126  RH  062%=      5-min Rain = 0
KBY1 140938Z 07007KT 20/13 A3027 RMK A01 T02010126  RH  062%=      5-min Rain = 0
KBY1 140939Z 08005KT 20/13 A3027 RMK A01 T02010126  RH  062%=      5-min Rain = 0
KBY1 140940Z 06004KT 20/13 A3027 RMK A01 T02020128  RH  062%=      5-min Rain = 0
KBY1 140941Z 09003KT 20/13 A3027 RMK A01 T02020128  RH  062%=      5-min Rain = 0
KBY1 140942Z 09004KT 20/13 A3027 RMK A01 T02020128  RH  062%=      5-min Rain = 0
KBY1 140943Z 09003KT 20/13 A3027 RMK A01 T02020127  RH  062%=      5-min Rain = 0
KBY1 140944Z 09003KT 20/13 A3027 RMK A01 T02020127  RH  062%=      5-min Rain = 0
KBY1 140945Z 09005KT 20/13 A3027 RMK A01 T02020129  RH  063%=      5-min Rain = 0
KBY1 140946Z 08007KT 20/13 A3027 RMK A01 T02020128  RH  063%=      5-min Rain = 0
KBY1 140947Z 08006KT 20/13 A3027 RMK A01 T02020128  RH  063%=      5-min Rain = 0
KBY1 140948Z 07005KT 20/13 A3027 RMK A01 T02020129  RH  063%=      5-min Rain = 0
KBY1 140949Z 08004KT 20/13 A3027 RMK A01 T02020129  RH  063%=      5-min Rain = 0
KBY1 140950Z 06005KT 20/13 A3027 RMK A01 T02020128  RH  063%=      5-min Rain = 0
KBY1 140951Z 06004KT 20/13 A3027 RMK A01 T02020126  RH  062%=      5-min Rain = 0
KBY1 140952Z 07005KT 20/13 A3027 RMK A01 T02020128  RH  062%=      5-min Rain = 0
KBY1 140953Z 06005KT 20/13 A3027 RMK A01 T02010127  RH  062%=      5-min Rain = 0
KBY1 140954Z 08004KT 20/13 A3027 RMK A01 T02020127  RH  062%=      5-min Rain = 0
KBY1 140955Z 06004KT 20/13 A3027 RMK A01 T02020128  RH  063%=      5-min Rain = 0
KBY1 140956Z 07004KT 20/13 A3028 RMK A01 T02020128  RH  063%=      5-min Rain = 0
KBY1 140957Z 06005KT 20/13 A3028 RMK A01 T02020128  RH  062%=      5-min Rain = 0
KBY1 140958Z 06004KT 20/13 A3028 RMK A01 T02020128  RH  062%=      5-min Rain = 0
KBY1 140959Z 02004KT 20/13 A3028 RMK A01 T02020128  RH  062%=      5-min Rain = 0
KBY1 141000Z 03004KT 20/13 A3028 RMK A01 T02020126  RH  062%=      5-min Rain = 0
KBY1 141001Z 06003KT 20/13 A3028 RMK A01 T02020127  RH  062%=      5-min Rain = 0
KBY1 141002Z 07003KT 20/13 A3028 RMK A01 T02030126  RH  062%=      5-min Rain = 0
KBY1 141003Z 07004KT 20/13 A3028 RMK A01 T02020127  RH  062%=      5-min Rain = 0
KBY1 141004Z 06006KT 20/13 A3029 RMK A01 T02020129  RH  063%=      5-min Rain = 0
KBY1 141005Z 06004KT 20/13 A3029 RMK A01 T02030127  RH  062%=      5-min Rain = 0
KBY1 141006Z 07003KT 20/13 A3029 RMK A01 T02030127  RH  062%=      5-min Rain = 0
KBY1 141007Z 08003KT 20/13 A3029 RMK A01 T02030127  RH  062%=      5-min Rain = 0
KBY1 141008Z 09003KT 20/13 A3029 RMK A01 T02020129  RH  062%=      5-min Rain = 0
KBY1 141009Z 09003KT 20/13 A3029 RMK A01 T02020131  RH  063%=      5-min Rain = 0
KBY1 141010Z 10003KT 20/13 A3029 RMK A01 T02030130  RH  063%=      5-min Rain = 0
KBY1 141011Z 09003KT 20/13 A3029 RMK A01 T02030130  RH  063%=      5-min Rain = 0
KBY1 141012Z 09003KT 20/13 A3029 RMK A01 T02020129  RH  063%=      5-min Rain = 0
KBY1 141013Z 09002KT 20/13 A3028 RMK A01 T02030129  RH  063%=      5-min Rain = 0
KBY1 141014Z 08002KT 20/13 A3028 RMK A01 T02020132  RH  064%=      5-min Rain = 0
KBY1 141015Z 08002KT 20/13 A3028 RMK A01 T02030134  RH  065%=      5-min Rain = 0
KBY1 141016Z 10002KT 20/13 A3028 RMK A01 T02020134  RH  065%=      5-min Rain = 0
KBY1 141017Z 11004KT 20/13 A3028 RMK A01 T02020131  RH  064%=      5-min Rain = 0
KBY1 141018Z 11005KT 20/13 A3028 RMK A01 T02020131  RH  064%=      5-min Rain = 0
KBY1 141019Z 11005KT 20/13 A3028 RMK A01 T02020133  RH  064%=      5-min Rain = 0
KBY1 141020Z 11005KT 20/13 A3028 RMK A01 T02010132  RH  064%=      5-min Rain = 0
KBY1 141021Z 10005KT 20/13 A3027 RMK A01 T02010132  RH  064%=      5-min Rain = 0
KBY1 141022Z 12006KT 20/13 A3027 RMK A01 T02010134  RH  065%=      5-min Rain = 0
KBY1 141023Z 12005KT 20/13 A3027 RMK A01 T02000132  RH  065%=      5-min Rain = 0
KBY1 141024Z 13006KT 20/13 A3027 RMK A01 T02000134  RH  066%=      5-min Rain = 0
KBY1 141025Z 13005KT 20/14 A3027 RMK A01 T01990135  RH  067%=      5-min Rain = 0
KBY1 141026Z 13005KT 20/14 A3027 RMK A01 T01980135  RH  067%=      5-min Rain = 0
KBY1 141027Z 13004KT 20/14 A3027 RMK A01 T01980136  RH  067%=      5-min Rain = 0
KBY1 141028Z 13004KT 20/14 A3027 RMK A01 T01970136  RH  068%=      5-min Rain = 0
KBY1 141029Z 13003KT 20/14 A3027 RMK A01 T01970137  RH  068%=      5-min Rain = 0
KBY1 141030Z 11004KT 20/14 A3027 RMK A01 T01970139  RH  069%=      5-min Rain = 0
KBY1 141031Z 11003KT 20/14 A3027 RMK A01 T01960139  RH  069%=      5-min Rain = 0
KBY1 141032Z 09003KT 20/14 A3027 RMK A01 T01950140  RH  070%=      5-min Rain = 0
KBY1 141033Z 07003KT 20/14 A3027 RMK A01 T01950140  RH  071%=      5-min Rain = 0
KBY1 141034Z 06003KT 19/14 A3027 RMK A01 T01940141  RH  071%=      5-min Rain = 0
KBY1 141035Z 05004KT 19/14 A3027 RMK A01 T01940142  RH  072%=      5-min Rain = 0
KBY1 141036Z 05004KT 19/14 A3027 RMK A01 T01940144  RH  073%=      5-min Rain = 0
KBY1 141037Z 03004KT 19/14 A3027 RMK A01 T01930144  RH  073%=      5-min Rain = 0
KBY1 141038Z 01006KT 19/15 A3028 RMK A01 T01930145  RH  074%=      5-min Rain = 0
KBY1 141039Z 01008KT 19/15 A3028 RMK A01 T01920145  RH  074%=      5-min Rain = 0
KBY1 141040Z 02008KT 19/14 A3028 RMK A01 T01920144  RH  074%=      5-min Rain = 0
KBY1 141041Z 03008KT 19/14 A3028 RMK A01 T01920141  RH  072%=      5-min Rain = 0
KBY1 141042Z 05006KT 19/14 A3028 RMK A01 T01920140  RH  072%=      5-min Rain = 0
KBY1 141043Z 04006KT 19/14 A3028 RMK A01 T01920142  RH  073%=      5-min Rain = 0
KBY1 141044Z 04007KT 19/14 A3028 RMK A01 T01910141  RH  072%=      5-min Rain = 0
KBY1 141045Z 03007KT 19/14 A3028 RMK A01 T01920141  RH  073%=      5-min Rain = 0
KBY1 141046Z 02007KT 19/14 A3028 RMK A01 T01910144  RH  074%=      5-min Rain = 0
KBY1 141047Z 02008KT 19/14 A3028 RMK A01 T01910144  RH  074%=      5-min Rain = 0
KBY1 141048Z 01007KT 19/14 A3028 RMK A01 T01910143  RH  074%=      5-min Rain = 0
KBY1 141049Z 02009KT 19/14 A3028 RMK A01 T01910143  RH  074%=      5-min Rain = 0
KBY1 141050Z 03008KT 19/14 A3028 RMK A01 T01910141  RH  073%=      5-min Rain = 0
KBY1 141051Z 04008KT 19/14 A3028 RMK A01 T01910141  RH  073%=      5-min Rain = 0
KBY1 141052Z 03009KT 19/14 A3028 RMK A01 T01910141  RH  072%=      5-min Rain = 0
KBY1 141053Z 03009KT 19/14 A3028 RMK A01 T01910144  RH  074%=      5-min Rain = 0
KBY1 141054Z 02007KT 19/15 A3028 RMK A01 T01900145  RH  075%=      5-min Rain = 0
KBY1 141055Z 03006KT 19/15 A3028 RMK A01 T01890146  RH  076%=      5-min Rain = 0
KBY1 141056Z 03006KT 19/15 A3028 RMK A01 T01880147  RH  077%=      5-min Rain = 0
KBY1 141057Z 04007KT 19/15 A3028 RMK A01 T01870147  RH  078%=      5-min Rain = 0
KBY1 141058Z 05003KT 19/15 A3028 RMK A01 T01870147  RH  078%=      5-min Rain = 0
KBY1 141059Z 05006KT 19/15 A3028 RMK A01 T01860149  RH  079%=      5-min Rain = 0
KBY1 141100Z 02005KT 19/15 A3028 RMK A01 T01850148  RH  079%=      5-min Rain = 0
KBY1 141101Z 04004KT 18/15 A3028 RMK A01 T01840149  RH  080%=      5-min Rain = 0
KBY1 141102Z 04005KT 18/15 A3028 RMK A01 T01840150  RH  081%=      5-min Rain = 0
KBY1 141103Z 04006G11KT 18/15 A3028 RMK A01 T01830151  RH  082%=      5-min Rain = 0
KBY1 141104Z 04007KT 18/15 A3028 RMK A01 T01820150  RH  081%=      5-min Rain = 0
KBY1 141105Z 03006KT 18/15 A3028 RMK A01 T01820150  RH  082%=      5-min Rain = 0
KBY1 141106Z 03006KT 18/15 A3027 RMK A01 T01810149  RH  081%=      5-min Rain = 0
KBY1 141107Z 04008KT 18/15 A3027 RMK A01 T01810150  RH  082%=      5-min Rain = 0
KBY1 141108Z 04008KT 18/15 A3027 RMK A01 T01810150  RH  082%=      5-min Rain = 0
KBY1 141109Z 04008KT 18/15 A3027 RMK A01 T01800150  RH  082%=      5-min Rain = 0
KBY1 141110Z 04006KT 18/15 A3027 RMK A01 T01800150  RH  083%=      5-min Rain = 0
KBY1 141111Z 04005KT 18/15 A3027 RMK A01 T01790150  RH  083%=      5-min Rain = 0
KBY1 141112Z 04006KT 18/15 A3026 RMK A01 T01790149  RH  083%=      5-min Rain = 0
KBY1 141113Z 03007KT 18/15 A3026 RMK A01 T01790147  RH  081%=      5-min Rain = 0
KBY1 141114Z 04006KT 18/15 A3026 RMK A01 T01800147  RH  081%=      5-min Rain = 0
KBY1 141115Z 04005KT 18/15 A3026 RMK A01 T01790147  RH  081%=      5-min Rain = 0
KBY1 141116Z 05006KT 18/15 A3026 RMK A01 T01800147  RH  081%=      5-min Rain = 0
KBY1 141117Z 03003KT 18/15 A3026 RMK A01 T01800147  RH  081%=      5-min Rain = 0
KBY1 141118Z 04004KT 18/15 A3026 RMK A01 T01800149  RH  082%=      5-min Rain = 0
KBY1 141119Z 04005KT 18/15 A3026 RMK A01 T01810149  RH  082%=      5-min Rain = 0
KBY1 141120Z 03007KT 18/15 A3026 RMK A01 T01800148  RH  081%=      5-min Rain = 0
KBY1 141121Z 03007KT 18/15 A3026 RMK A01 T01810148  RH  081%=      5-min Rain = 0
KBY1 141122Z 04006KT 18/15 A3026 RMK A01 T01820149  RH  081%=      5-min Rain = 0
KBY1 141123Z 03004KT 18/15 A3026 RMK A01 T01830148  RH  080%=      5-min Rain = 0
KBY1 141124Z 04005KT 18/15 A3026 RMK A01 T01840149  RH  080%=      5-min Rain = 0
KBY1 141125Z 05004KT 19/15 A3026 RMK A01 T01850148  RH  079%=      5-min Rain = 0
KBY1 141126Z 04004KT 19/15 A3026 RMK A01 T01860150  RH  080%=      5-min Rain = 0
KBY1 141127Z 03004KT 19/15 A3026 RMK A01 T01860149  RH  079%=      5-min Rain = 0
KBY1 141128Z 02006KT 19/15 A3026 RMK A01 T01870149  RH  079%=      5-min Rain = 0
KBY1 141129Z 03008KT 19/15 A3026 RMK A01 T01890147  RH  076%=      5-min Rain = 0
KBY1 141130Z 03008G13KT 19/15 A3026 RMK A01 T01920149  RH  076%=      5-min Rain = 0
KBY1 141131Z 02010G15KT 19/15 A3026 RMK A01 T01940148  RH  075%=      5-min Rain = 0
KBY1 141132Z 03008KT 20/15 A3026 RMK A01 T01950147  RH  074%=      5-min Rain = 0
KBY1 141133Z 03007KT 20/15 A3026 RMK A01 T01960148  RH  074%=      5-min Rain = 0
KBY1 141134Z 03008G13KT 20/15 A3026 RMK A01 T01960148  RH  074%=      5-min Rain = 0
KBY1 141135Z 02009G14KT 20/15 A3026 RMK A01 T01960150  RH  074%=      5-min Rain = 0
KBY1 141136Z 03007KT 20/15 A3026 RMK A01 T01970149  RH  074%=      5-min Rain = 0.01
KBY1 141137Z 03007KT 20/15 A3026 RMK A01 T01970150  RH  074%=      5-min Rain = 0
KBY1 141138Z 03009KT 20/15 A3026 RMK A01 T01970149  RH  074%=      5-min Rain = 0
KBY1 141139Z 02006KT 20/15 A3026 RMK A01 T01970150  RH  074%=      5-min Rain = 0
KBY1 141140Z 03006KT 20/15 A3026 RMK A01 T01980150  RH  074%=      5-min Rain = 0
KBY1 141141Z 02005KT 20/15 A3026 RMK A01 T01980152  RH  075%=      5-min Rain = 0
KBY1 141142Z 01007KT 20/15 A3026 RMK A01 T01970150  RH  074%=      5-min Rain = 0
KBY1 141143Z 01010KT 20/15 A3027 RMK A01 T01970148  RH  073%=      5-min Rain = 0
KBY1 141144Z 02007KT 20/15 A3027 RMK A01 T01980149  RH  073%=      5-min Rain = 0
KBY1 141145Z 01010KT 20/15 A3027 RMK A01 T01990150  RH  073%=      5-min Rain = 0
KBY1 141146Z 01008G14KT 20/15 A3027 RMK A01 T01990149  RH  073%=      5-min Rain = 0
KBY1 141147Z 01011KT 20/15 A3027 RMK A01 T01990149  RH  073%=      5-min Rain = 0
KBY1 141148Z 00010KT 20/15 A3027 RMK A01 T01990148  RH  072%=      5-min Rain = 0
KBY1 141149Z 01009KT 20/15 A3027 RMK A01 T01990150  RH  073%=      5-min Rain = 0
KBY1 141150Z 01009KT 20/15 A3027 RMK A01 T01980151  RH  074%=      5-min Rain = 0
KBY1 141151Z 01008KT 20/15 A3027 RMK A01 T01970151  RH  075%=      5-min Rain = 0
KBY1 141152Z 01009KT 20/15 A3027 RMK A01 T01960151  RH  075%=      5-min Rain = 0
KBY1 141153Z 00011KT 20/15 A3027 RMK A01 T01960151  RH  076%=      5-min Rain = 0.01
KBY1 141154Z 01009KT 20/15 A3027 RMK A01 T01950152  RH  076%=      5-min Rain = 0
KBY1 141155Z 01010KT 20/15 A3027 RMK A01 T01950151  RH  076%=      5-min Rain = 0
KBY1 141156Z 01010KT 20/15 A3027 RMK A01 T01950150  RH  076%=      5-min Rain = 0
KBY1 141157Z 01008KT 20/15 A3027 RMK A01 T01950150  RH  075%=      5-min Rain = 0
KBY1 141158Z 35004KT 20/15 A3027 RMK A01 T01950152  RH  076%=      5-min Rain = 0
KBY1 141159Z 35005KT 20/15 A3027 RMK A01 T01950153  RH  076%=      5-min Rain = 0
KBY1 141200Z 34004KT 20/15 A3027 RMK A01 T01950151  RH  076%=      5-min Rain = 0
KBY1 141201Z 30002KT 20/15 A3028 RMK A01 T01950152  RH  076%=      5-min Rain = 0
KBY1 141202Z 28003KT 20/15 A3028 RMK A01 T01950152  RH  076%=      5-min Rain = 0
KBY1 141203Z 29003KT 19/15 A3028 RMK A01 T01940150  RH  076%=      5-min Rain = 0
KBY1 141204Z 26004KT 20/15 A3028 RMK A01 T01950152  RH  076%=      5-min Rain = 0
KBY1 141205Z 25005KT 20/15 A3028 RMK A01 T01950151  RH  076%=      5-min Rain = 0
KBY1 141206Z 24005KT 20/15 A3028 RMK A01 T01950151  RH  076%=      5-min Rain = 0
KBY1 141207Z 24007KT 19/15 A3028 RMK A01 T01940154  RH  077%=      5-min Rain = 0
KBY1 141208Z 23007KT 19/16 A3028 RMK A01 T01930157  RH  079%=      5-min Rain = 0
KBY1 141209Z 23006KT 19/16 A3028 RMK A01 T01910157  RH  081%=      5-min Rain = 0
KBY1 141210Z 22005KT 19/16 A3028 RMK A01 T01900158  RH  082%=      5-min Rain = 0
KBY1 141211Z 22005KT 19/16 A3028 RMK A01 T01890158  RH  082%=      5-min Rain = 0
KBY1 141212Z 23008KT 19/16 A3028 RMK A01 T01880157  RH  082%=      5-min Rain = 0
KBY1 141213Z 23008KT 19/15 A3028 RMK A01 T01880153  RH  080%=      5-min Rain = 0
KBY1 141214Z 26008KT 19/15 A3027 RMK A01 T01900147  RH  076%=      5-min Rain = 0
KBY1 141215Z 32005G10KT 19/14 A3027 RMK A01 T01940140  RH  071%=      5-min Rain = 0
KBY1 141216Z 31004KT 20/14 A3027 RMK A01 T01990136  RH  067%=      5-min Rain = 0
KBY1 141217Z 33004KT 20/14 A3027 RMK A01 T02020141  RH  068%=      5-min Rain = 0
KBY1 141218Z 36003KT 20/15 A3027 RMK A01 T02030147  RH  070%=      5-min Rain = 0
KBY1 141219Z 05002KT 20/15 A3027 RMK A01 T02010152  RH  073%=      5-min Rain = 0
KBY1 141220Z 01000KT 20/15 A3027 RMK A01 T01990153  RH  075%=      5-min Rain = 0
KBY1 141221Z 27001KT 20/15 A3026 RMK A01 T01970149  RH  074%=      5-min Rain = 0
KBY1 141222Z 20002KT 20/15 A3026 RMK A01 T01970147  RH  073%=      5-min Rain = 0
KBY1 141223Z 20005KT 20/15 A3026 RMK A01 T01970148  RH  074%=      5-min Rain = 0
KBY1 141224Z 19007KT 20/15 A3026 RMK A01 T01960151  RH  075%=      5-min Rain = 0
KBY1 141225Z 18009KT 20/15 A3026 RMK A01 T01950151  RH  076%=      5-min Rain = 0
KBY1 141226Z 18009KT 19/15 A3025 RMK A01 T01930153  RH  077%=      5-min Rain = 0
KBY1 141227Z 18010KT 19/15 A3025 RMK A01 T01920151  RH  077%=      5-min Rain = 0
KBY1 141228Z 17008KT 19/15 A3025 RMK A01 T01920149  RH  076%=      5-min Rain = 0
KBY1 141229Z 16007KT 19/15 A3024 RMK A01 T01920151  RH  077%=      5-min Rain = 0
KBY1 141230Z 16007KT 19/15 A3024 RMK A01 T01920152  RH  078%=      5-min Rain = 0
KBY1 141231Z 17010KT 19/15 A3024 RMK A01 T01910149  RH  077%=      5-min Rain = 0
KBY1 141232Z 18009KT 19/15 A3024 RMK A01 T01920148  RH  076%=      5-min Rain = 0
KBY1 141233Z 18011KT 19/15 A3024 RMK A01 T01920150  RH  077%=      5-min Rain = 0
KBY1 141234Z 18010KT 19/15 A3024 RMK A01 T01910151  RH  077%=      5-min Rain = 0
KBY1 141235Z 18004G9KT 19/15 A3024 RMK A01 T01910154  RH  079%=      5-min Rain = 0
KBY1 141236Z 17006KT 19/15 A3024 RMK A01 T01890154  RH  080%=      5-min Rain = 0
KBY1 141237Z 17003KT 19/16 A3025 RMK A01 T01890155  RH  081%=      5-min Rain = 0
KBY1 141238Z 18002KT 19/16 A3025 RMK A01 T01880156  RH  082%=      5-min Rain = 0
KBY1 141239Z 18001KT 19/15 A3025 RMK A01 T01880152  RH  080%=      5-min Rain = 0
KBY1 141240Z 20002KT 19/15 A3025 RMK A01 T01880150  RH  079%=      5-min Rain = 0
KBY1 141241Z 19003KT 19/15 A3025 RMK A01 T01890150  RH  078%=      5-min Rain = 0
KBY1 141242Z 20003KT 19/15 A3024 RMK A01 T01890154  RH  080%=      5-min Rain = 0
KBY1 141243Z 19006KT 19/16 A3024 RMK A01 T01890156  RH  081%=      5-min Rain = 0
KBY1 141244Z 18007KT 19/16 A3024 RMK A01 T01880158  RH  082%=      5-min Rain = 0
KBY1 141245Z 18008KT 19/16 A3023 RMK A01 T01870157  RH  083%=      5-min Rain = 0
KBY1 141246Z 17009G14KT 19/16 A3023 RMK A01 T01860157  RH  083%=      5-min Rain = 0
KBY1 141247Z 16012KT 19/15 A3022 RMK A01 T01860153  RH  081%=      5-min Rain = 0
KBY1 141248Z 15010KT 19/15 A3022 RMK A01 T01870150  RH  079%=      5-min Rain = 0
KBY1 141249Z 14009KT 19/15 A3021 RMK A01 T01890151  RH  078%=      5-min Rain = 0
KBY1 141250Z 14009KT 19/15 A3021 RMK A01 T01890152  RH  079%=      5-min Rain = 0
KBY1 141251Z 13011KT 19/15 A302 RMK A01 T01890151  RH  078%=      5-min Rain = 0
KBY1 141252Z 13008KT 19/15 A302 RMK A01 T01890150  RH  078%=      5-min Rain = 0
KBY1 141253Z 13007KT 19/15 A302 RMK A01 T01900151  RH  078%=      5-min Rain = 0
KBY1 141254Z 13007KT 19/15 A302 RMK A01 T01900153  RH  079%=      5-min Rain = 0
KBY1 141255Z 13006KT 19/15 A302 RMK A01 T01900151  RH  078%=      5-min Rain = 0
KBY1 141256Z 14005KT 19/15 A302 RMK A01 T01910151  RH  078%=      5-min Rain = 0
KBY1 141257Z 14006KT 19/15 A3021 RMK A01 T01910151  RH  078%=      5-min Rain = 0
KBY1 141258Z 15006KT 19/15 A3021 RMK A01 T01920151  RH  077%=      5-min Rain = 0
KBY1 141259Z 14005KT 19/15 A3022 RMK A01 T01920150  RH  076%=      5-min Rain = 0
KBY1 141300Z 18003KT 19/15 A3022 RMK A01 T01930148  RH  075%=      5-min Rain = 0
KBY1 141301Z 17004KT 19/15 A3023 RMK A01 T01940149  RH  075%=      5-min Rain = 0
KBY1 141302Z 20004KT 19/15 A3023 RMK A01 T01940149  RH  075%=      5-min Rain = 0
KBY1 141303Z 22004KT 19/15 A3023 RMK A01 T01940150  RH  075%=      5-min Rain = 0
KBY1 141304Z 25005KT 19/15 A3024 RMK A01 T01940151  RH  076%=      5-min Rain = 0
KBY1 141305Z 25005KT 20/15 A3024 RMK A01 T01950152  RH  076%=      5-min Rain = 0
KBY1 141306Z 25004KT 19/15 A3024 RMK A01 T01940154  RH  077%=      5-min Rain = 0
KBY1 141307Z 23004KT 19/15 A3024 RMK A01 T01940151  RH  076%=      5-min Rain = 0
KBY1 141308Z 24003KT 19/15 A3024 RMK A01 T01940150  RH  076%=      5-min Rain = 0
KBY1 141309Z 22003KT 19/15 A3024 RMK A01 T01940149  RH  075%=      5-min Rain = 0
KBY1 141310Z 20003KT 19/15 A3023 RMK A01 T01940151  RH  076%=      5-min Rain = 0
KBY1 141311Z 21003KT 19/15 A3023 RMK A01 T01940150  RH  076%=      5-min Rain = 0
KBY1 141312Z 18002KT 19/15 A3023 RMK A01 T01940153  RH  077%=      5-min Rain = 0
KBY1 141313Z 19003KT 19/16 A3023 RMK A01 T01940155  RH  078%=      5-min Rain = 0
KBY1 141314Z 19004KT 19/15 A3023 RMK A01 T01930152  RH  077%=      5-min Rain = 0
KBY1 141315Z 18003KT 19/15 A3023 RMK A01 T01930150  RH  076%=      5-min Rain = 0
KBY1 141316Z 20003KT 19/15 A3023 RMK A01 T01940154  RH  078%=      5-min Rain = 0
KBY1 141317Z 21003KT 19/16 A3023 RMK A01 T01930155  RH  078%=      5-min Rain = 0
KBY1 141318Z 20005KT 19/15 A3023 RMK A01 T01930153  RH  077%=      5-min Rain = 0
KBY1 141319Z 20005KT 19/15 A3023 RMK A01 T01930151  RH  076%=      5-min Rain = 0
KBY1 141320Z 20005KT 19/15 A3023 RMK A01 T01940150  RH  076%=      5-min Rain = 0
KBY1 141321Z 20004KT 19/15 A3023 RMK A01 T01940149  RH  075%=      5-min Rain = 0
KBY1 141322Z 19003KT 20/15 A3023 RMK A01 T01950152  RH  076%=      5-min Rain = 0
KBY1 141323Z 17003KT 20/15 A3023 RMK A01 T01950152  RH  076%=      5-min Rain = 0
KBY1 141324Z 09003KT 20/15 A3023 RMK A01 T01950151  RH  076%=      5-min Rain = 0
KBY1 141325Z 07004KT 20/15 A3023 RMK A01 T01950153  RH  077%=      5-min Rain = 0
KBY1 141326Z 09004KT 20/15 A3023 RMK A01 T01950151  RH  076%=      5-min Rain = 0
KBY1 141327Z 12004KT 20/15 A3023 RMK A01 T01950150  RH  075%=      5-min Rain = 0
KBY1 141328Z 13004KT 20/15 A3022 RMK A01 T01960149  RH  074%=      5-min Rain = 0
KBY1 141329Z 15005KT 20/15 A3022 RMK A01 T01960149  RH  074%=      5-min Rain = 0
KBY1 141330Z 18007KT 20/15 A3022 RMK A01 T01960150  RH  074%=      5-min Rain = 0
KBY1 141331Z 19007KT 20/15 A3022 RMK A01 T01970150  RH  075%=      5-min Rain = 0
KBY1 141332Z 19008KT 20/15 A3022 RMK A01 T01960151  RH  075%=      5-min Rain = 0
KBY1 141333Z 19008KT 20/15 A3022 RMK A01 T01950151  RH  076%=      5-min Rain = 0
KBY1 141334Z 19008KT 20/15 A3022 RMK A01 T01950151  RH  075%=      5-min Rain = 0
KBY1 141335Z 19006KT 20/15 A3022 RMK A01 T01950151  RH  076%=      5-min Rain = 0
KBY1 141336Z 18006KT 20/15 A3022 RMK A01 T01950149  RH  075%=      5-min Rain = 0
KBY1 141337Z 20007KT 20/15 A3022 RMK A01 T01960150  RH  075%=      5-min Rain = 0
KBY1 141338Z 19006KT 20/15 A3022 RMK A01 T01970148  RH  074%=      5-min Rain = 0
KBY1 141339Z 20005KT 20/15 A3022 RMK A01 T01970149  RH  074%=      5-min Rain = 0
KBY1 141340Z 20005KT 20/15 A3022 RMK A01 T01980150  RH  074%=      5-min Rain = 0
KBY1 141341Z 19006KT 20/15 A3022 RMK A01 T01980149  RH  073%=      5-min Rain = 0
KBY1 141342Z 20007KT 20/15 A3022 RMK A01 T01990148  RH  072%=      5-min Rain = 0
KBY1 141343Z 20007KT 20/15 A3022 RMK A01 T01990147  RH  072%=      5-min Rain = 0
KBY1 141344Z 20006KT 20/15 A3022 RMK A01 T02000148  RH  072%=      5-min Rain = 0
KBY1 141345Z 20006KT 20/15 A3022 RMK A01 T02010148  RH  071%=      5-min Rain = 0
KBY1 141346Z 19007KT 20/15 A3022 RMK A01 T02010147  RH  071%=      5-min Rain = 0
KBY1 141347Z 19004KT 20/15 A3022 RMK A01 T02020146  RH  070%=      5-min Rain = 0
KBY1 141348Z 19006KT 20/15 A3023 RMK A01 T02020147  RH  070%=      5-min Rain = 0
KBY1 141349Z 19004KT 20/15 A3022 RMK A01 T02030146  RH  070%=      5-min Rain = 0
KBY1 141350Z 19004KT 20/15 A3022 RMK A01 T02040146  RH  069%=      5-min Rain = 0
KBY1 141351Z 18003KT 20/15 A3022 RMK A01 T02040146  RH  069%=      5-min Rain = 0
KBY1 141352Z 18002KT 21/15 A3022 RMK A01 T02050147  RH  069%=      5-min Rain = 0
KBY1 141353Z 17001KT 21/15 A3022 RMK A01 T02050147  RH  069%=      5-min Rain = 0
KBY1 141354Z 18000KT 21/15 A3022 RMK A01 T02050147  RH  069%=      5-min Rain = 0
KBY1 141355Z 16000KT 21/15 A3022 RMK A01 T02050148  RH  070%=      5-min Rain = 0
KBY1 141356Z 14000KT 21/15 A3022 RMK A01 T02060149  RH  070%=      5-min Rain = 0
KBY1 141357Z 07001KT 21/15 A3022 RMK A01 T02060152  RH  071%=      5-min Rain = 0
KBY1 141358Z 07003KT 21/16 A3023 RMK A01 T02060156  RH  073%=      5-min Rain = 0
KBY1 141359Z 05005KT 21/16 A3023 RMK A01 T02060155  RH  073%=      5-min Rain = 0
KBY1 141400Z 05006KT 21/16 A3023 RMK A01 T02050157  RH  074%=      5-min Rain = 0
KBY1 141401Z 05006KT 21/15 A3023 RMK A01 T02050154  RH  073%=      5-min Rain = 0
KBY1 141402Z 05004KT 21/15 A3023 RMK A01 T02050154  RH  073%=      5-min Rain = 0
KBY1 141403Z 03003KT 21/15 A3023 RMK A01 T02050153  RH  072%=      5-min Rain = 0
KBY1 141404Z 01004KT 21/15 A3023 RMK A01 T02050153  RH  072%=      5-min Rain = 0
KBY1 141405Z 00005KT 21/15 A3023 RMK A01 T02050154  RH  072%=      5-min Rain = 0
KBY1 141406Z 01006KT 21/16 A3024 RMK A01 T02050156  RH  074%=      5-min Rain = 0
KBY1 141407Z 01007KT 21/16 A3024 RMK A01 T02050160  RH  075%=      5-min Rain = 0
KBY1 141408Z 01008KT 20/16 A3024 RMK A01 T02040160  RH  076%=      5-min Rain = 0
KBY1 141409Z 01007KT 20/16 A3024 RMK A01 T02030158  RH  075%=      5-min Rain = 0
KBY1 141410Z 01007KT 20/16 A3024 RMK A01 T02030157  RH  075%=      5-min Rain = 0
KBY1 141411Z 02010KT 20/16 A3024 RMK A01 T02030156  RH  075%=      5-min Rain = 0
KBY1 141412Z 02011KT 20/16 A3025 RMK A01 T02030155  RH  074%=      5-min Rain = 0
KBY1 141413Z 02011KT 20/16 A3025 RMK A01 T02040156  RH  074%=      5-min Rain = 0
KBY1 141414Z 01009KT 20/16 A3025 RMK A01 T02040159  RH  075%=      5-min Rain = 0
KBY1 141415Z 01013G18KT 20/16 A3025 RMK A01 T02040159  RH  075%=      5-min Rain = 0
KBY1 141416Z 01011KT 20/16 A3025 RMK A01 T02040159  RH  076%=      5-min Rain = 0
KBY1 141417Z 00013KT 20/16 A3025 RMK A01 T02030157  RH  075%=      5-min Rain = 0
KBY1 141418Z 01009KT 20/16 A3025 RMK A01 T02030157  RH  075%=      5-min Rain = 0
KBY1 141419Z 01008G13KT 20/16 A3025 RMK A01 T02030157  RH  075%=      5-min Rain = 0
KBY1 141420Z 01009KT 20/16 A3025 RMK A01 T02040155  RH  073%=      5-min Rain = 0
KBY1 141421Z 00009KT 21/16 A3026 RMK A01 T02050155  RH  073%=      5-min Rain = 0
KBY1 141422Z 01011KT 21/16 A3026 RMK A01 T02060155  RH  073%=      5-min Rain = 0
KBY1 141423Z 00012KT 21/15 A3026 RMK A01 T02060154  RH  072%=      5-min Rain = 0
KBY1 141424Z 00009KT 21/16 A3026 RMK A01 T02060155  RH  072%=      5-min Rain = 0
KBY1 141425Z 00010KT 21/16 A3026 RMK A01 T02060155  RH  072%=      5-min Rain = 0
KBY1 141426Z 00009KT 21/15 A3026 RMK A01 T02060153  RH  072%=      5-min Rain = 0
KBY1 141427Z 01008KT 21/15 A3026 RMK A01 T02060154  RH  072%=      5-min Rain = 0
KBY1 141428Z 00009KT 21/16 A3026 RMK A01 T02070155  RH  072%=      5-min Rain = 0
KBY1 141429Z 00010KT 21/15 A3026 RMK A01 T02070154  RH  072%=      5-min Rain = 0
KBY1 141430Z 00010KT 21/15 A3026 RMK A01 T02070154  RH  071%=      5-min Rain = 0
KBY1 141431Z 36009KT 21/16 A3026 RMK A01 T02080155  RH  072%=      5-min Rain = 0
KBY1 141432Z 36008KT 21/16 A3026 RMK A01 T02090155  RH  071%=      5-min Rain = 0
KBY1 141433Z 35009KT 21/16 A3026 RMK A01 T02100155  RH  071%=      5-min Rain = 0
KBY1 141434Z 35010KT 21/15 A3026 RMK A01 T02120154  RH  070%=      5-min Rain = 0
KBY1 141435Z 35008KT 21/16 A3026 RMK A01 T02130156  RH  070%=      5-min Rain = 0
KBY1 141436Z 35007KT 21/16 A3026 RMK A01 T02130158  RH  070%=      5-min Rain = 0
KBY1 141437Z 35007KT 21/16 A3026 RMK A01 T02130156  RH  070%=      5-min Rain = 0
KBY1 141438Z 35006KT 21/16 A3026 RMK A01 T02130156  RH  070%=      5-min Rain = 0
KBY1 141439Z 35007KT 21/16 A3026 RMK A01 T02130155  RH  069%=      5-min Rain = 0
KBY1 141440Z 35007KT 21/15 A3026 RMK A01 T02140153  RH  068%=      5-min Rain = 0
KBY1 141441Z 35007KT 21/15 A3026 RMK A01 T02140154  RH  068%=      5-min Rain = 0
KBY1 141442Z 35007KT 21/15 A3026 RMK A01 T02140152  RH  068%=      5-min Rain = 0
KBY1 141443Z 35008KT 22/15 A3026 RMK A01 T02150152  RH  067%=      5-min Rain = 0
KBY1 141444Z 35007KT 22/15 A3026 RMK A01 T02160152  RH  067%=      5-min Rain = 0
KBY1 141445Z 00006KT 22/16 A3026 RMK A01 T02160155  RH  068%=      5-min Rain = 0
KBY1 141446Z 00008KT 22/15 A3027 RMK A01 T02170153  RH  067%=      5-min Rain = 0
KBY1 141447Z 00010KT 22/15 A3027 RMK A01 T02180153  RH  066%=      5-min Rain = 0
KBY1 141448Z 00009KT 22/16 A3027 RMK A01 T02190155  RH  067%=      5-min Rain = 0
KBY1 141449Z 35008KT 22/16 A3027 RMK A01 T02210156  RH  067%=      5-min Rain = 0
KBY1 141450Z 35008KT 22/16 A3027 RMK A01 T02240156  RH  065%=      5-min Rain = 0
KBY1 141451Z 35008KT 23/16 A3027 RMK A01 T02260157  RH  065%=      5-min Rain = 0
KBY1 141452Z 35010KT 23/16 A3027 RMK A01 T02280156  RH  063%=      5-min Rain = 0
KBY1 141453Z 35011KT 23/15 A3027 RMK A01 T02300153  RH  062%=      5-min Rain = 0
KBY1 141454Z 35011KT 23/15 A3027 RMK A01 T02310154  RH  062%=      5-min Rain = 0
KBY1 141455Z 35010G15KT 23/15 A3027 RMK A01 T02340154  RH  061%=      5-min Rain = 0
KBY1 141456Z 35013KT 24/15 A3027 RMK A01 T02370153  RH  059%=      5-min Rain = 0
KBY1 141457Z 34011KT 24/15 A3027 RMK A01 T02390153  RH  059%=      5-min Rain = 0
KBY1 141458Z 35008KT 24/15 A3026 RMK A01 T02400152  RH  058%=      5-min Rain = 0
KBY1 141459Z 35008KT 24/15 A3026 RMK A01 T02430153  RH  057%=      5-min Rain = 0
KBY1 141500Z 35009KT 25/15 A3026 RMK A01 T02460153  RH  056%=      5-min Rain = 0
KBY1 141501Z 35007KT 25/15 A3026 RMK A01 T02480151  RH  055%=      5-min Rain = 0
KBY1 141502Z 35008KT 25/16 A3026 RMK A01 T02500155  RH  055%=      5-min Rain = 0
KBY1 141503Z 01009KT 25/15 A3026 RMK A01 T02510150  RH  053%=      5-min Rain = 0
KBY1 141504Z 35008KT 25/15 A3026 RMK A01 T02500149  RH  053%=      5-min Rain = 0
KBY1 141505Z 34008KT 25/15 A3026 RMK A01 T02510150  RH  054%=      5-min Rain = 0
KBY1 141506Z 35007KT 25/15 A3026 RMK A01 T02520146  RH  052%=      5-min Rain = 0
KBY1 141507Z 36008KT 25/15 A3026 RMK A01 T02530145  RH  051%=      5-min Rain = 0
KBY1 141508Z 36007KT 25/14 A3026 RMK A01 T02540144  RH  050%=      5-min Rain = 0
KBY1 141509Z 36006KT 26/15 A3026 RMK A01 T02560145  RH  050%=      5-min Rain = 0
KBY1 141510Z 34005KT 26/15 A3026 RMK A01 T02580149  RH  051%=      5-min Rain = 0
KBY1 141511Z 31007KT 26/15 A3026 RMK A01 T02600147  RH  050%=      5-min Rain = 0
KBY1 141512Z 32007KT 26/15 A3026 RMK A01 T02600146  RH  049%=      5-min Rain = 0
KBY1 141513Z 32006KT 26/14 A3026 RMK A01 T02590141  RH  048%=      5-min Rain = 0
KBY1 141514Z 34007KT 26/14 A3026 RMK A01 T02570140  RH  048%=      5-min Rain = 0
KBY1 141515Z 33008KT 26/15 A3026 RMK A01 T02560148  RH  051%=      5-min Rain = 0
KBY1 141516Z 34009KT 26/15 A3026 RMK A01 T02560150  RH  052%=      5-min Rain = 0
KBY1 141517Z 33009KT 25/15 A3026 RMK A01 T02540149  RH  052%=      5-min Rain = 0
KBY1 141518Z 33006KT 25/15 A3026 RMK A01 T02520150  RH  053%=      5-min Rain = 0
KBY1 141519Z 33006KT 25/15 A3026 RMK A01 T02520151  RH  053%=      5-min Rain = 0
KBY1 141520Z 33005KT 25/15 A3026 RMK A01 T02530148  RH  052%=      5-min Rain = 0
KBY1 141521Z 33006KT 25/15 A3026 RMK A01 T02540149  RH  052%=      5-min Rain = 0
KBY1 141522Z 33007KT 25/15 A3026 RMK A01 T02540150  RH  052%=      5-min Rain = 0
KBY1 141523Z 33006KT 25/15 A3026 RMK A01 T02540148  RH  052%=      5-min Rain = 0
KBY1 141524Z 33006KT 25/15 A3026 RMK A01 T02530152  RH  054%=      5-min Rain = 0
KBY1 141525Z 33006KT 25/15 A3026 RMK A01 T02530152  RH  054%=      5-min Rain = 0
KBY1 141526Z 34006KT 26/15 A3026 RMK A01 T02560153  RH  053%=      5-min Rain = 0
KBY1 141527Z 35006KT 26/16 A3027 RMK A01 T02590156  RH  053%=      5-min Rain = 0
KBY1 141528Z 00010KT 26/16 A3027 RMK A01 T02620155  RH  052%=      5-min Rain = 0
KBY1 141529Z 00010KT 26/16 A3027 RMK A01 T02620155  RH  052%=      5-min Rain = 0
KBY1 141530Z 01007KT 26/16 A3028 RMK A01 T02620159  RH  053%=      5-min Rain = 0
KBY1 141531Z 00009G14KT 26/16 A3028 RMK A01 T02640159  RH  052%=      5-min Rain = 0
KBY1 141532Z 36013KT 27/15 A3028 RMK A01 T02650152  RH  050%=      5-min Rain = 0
KBY1 141533Z 01010KT 26/15 A3028 RMK A01 T02640149  RH  049%=      5-min Rain = 0
KBY1 141534Z 01010KT 26/15 A3028 RMK A01 T02620149  RH  050%=      5-min Rain = 0
KBY1 141535Z 35013KT 26/15 A3028 RMK A01 T02610154  RH  052%=      5-min Rain = 0
KBY1 141536Z 00008KT 26/16 A3028 RMK A01 T02610159  RH  053%=      5-min Rain = 0
KBY1 141537Z 02010G15KT 26/16 A3028 RMK A01 T02600160  RH  054%=      5-min Rain = 0
KBY1 141538Z 02012KT 26/16 A3028 RMK A01 T02580160  RH  055%=      5-min Rain = 0
KBY1 141539Z 01011KT 26/16 A3028 RMK A01 T02550158  RH  055%=      5-min Rain = 0
KBY1 141540Z 02011KT 25/16 A3028 RMK A01 T02540156  RH  055%=      5-min Rain = 0
KBY1 141541Z 02012G17KT 25/15 A3028 RMK A01 T02510152  RH  054%=      5-min Rain = 0
KBY1 141542Z 02011KT 25/15 A3028 RMK A01 T02490154  RH  056%=      5-min Rain = 0
KBY1 141543Z 01010KT 25/16 A3028 RMK A01 T02460155  RH  057%=      5-min Rain = 0
KBY1 141544Z 02008KT 25/16 A3028 RMK A01 T02450156  RH  058%=      5-min Rain = 0
KBY1 141545Z 03009KT 25/16 A3028 RMK A01 T02450159  RH  059%=      5-min Rain = 0
KBY1 141546Z 03011KT 25/16 A3028 RMK A01 T02450161  RH  060%=      5-min Rain = 0
KBY1 141547Z 03013KT 25/16 A3028 RMK A01 T02460162  RH  059%=      5-min Rain = 0
KBY1 141548Z 04012KT 25/16 A3028 RMK A01 T02460160  RH  059%=      5-min Rain = 0
KBY1 141549Z 04009KT 25/16 A3028 RMK A01 T02480162  RH  059%=      5-min Rain = 0
KBY1 141550Z 03010KT 25/16 A3028 RMK A01 T02490162  RH  058%=      5-min Rain = 0
KBY1 141551Z 03011KT 25/16 A3028 RMK A01 T02490163  RH  059%=      5-min Rain = 0
KBY1 141552Z 04010KT 25/17 A3028 RMK A01 T02490165  RH  059%=      5-min Rain = 0
KBY1 141553Z 05016G21KT 25/17 A3029 RMK A01 T02520168  RH  060%=      5-min Rain = 0
KBY1 141554Z 05014KT 25/17 A3029 RMK A01 T02510167  RH  059%=      5-min Rain = 0
KBY1 141555Z 05011KT 25/17 A3029 RMK A01 T02490169  RH  061%=      5-min Rain = 0
KBY1 141556Z 06012KT 25/17 A3029 RMK A01 T02490169  RH  061%=      5-min Rain = 0
KBY1 141557Z 03008KT 25/17 A303 RMK A01 T02480170  RH  062%=      5-min Rain = 0
KBY1 141558Z 03013KT 25/17 A303 RMK A01 T02470168  RH  061%=      5-min Rain = 0
KBY1 141559Z 03014KT 25/17 A303 RMK A01 T02450167  RH  062%=      5-min Rain = 0
KBY1 141600Z 02011KT 24/16 A303 RMK A01 T02430163  RH  061%=      5-min Rain = 0
KBY1 141601Z 01011KT 24/16 A303 RMK A01 T02420158  RH  059%=      5-min Rain = 0
KBY1 141602Z 03010KT 24/16 A303 RMK A01 T02400155  RH  059%=      5-min Rain = 0
KBY1 141603Z 04011KT 24/16 A303 RMK A01 T02380156  RH  060%=      5-min Rain = 0
KBY1 141604Z 04014KT 24/16 A303 RMK A01 T02370157  RH  061%=      5-min Rain = 0
KBY1 141605Z 04014G19KT 24/16 A303 RMK A01 T02370156  RH  060%=      5-min Rain = 0
KBY1 141606Z 03012KT 24/16 A303 RMK A01 T02360157  RH  061%=      5-min Rain = 0
KBY1 141607Z 03009G14KT 24/16 A303 RMK A01 T02370155  RH  060%=      5-min Rain = 0
KBY1 141608Z 01008KT 24/16 A303 RMK A01 T02370157  RH  061%=      5-min Rain = 0
KBY1 141609Z 03011KT 24/16 A3031 RMK A01 T02380157  RH  060%=      5-min Rain = 0
KBY1 141610Z 02009KT 24/16 A3031 RMK A01 T02390157  RH  060%=      5-min Rain = 0
KBY1 141611Z 02010KT 24/16 A3031 RMK A01 T02390156  RH  060%=      5-min Rain = 0
KBY1 141612Z 01008KT 24/16 A3031 RMK A01 T02370156  RH  060%=      5-min Rain = 0
KBY1 141613Z 00008KT 24/16 A3031 RMK A01 T02380156  RH  060%=      5-min Rain = 0
KBY1 141614Z 00005KT 24/16 A3031 RMK A01 T02380156  RH  060%=      5-min Rain = 0
KBY1 141615Z 02009KT 24/16 A3031 RMK A01 T02400161  RH  061%=      5-min Rain = 0
KBY1 141616Z 03009KT 24/16 A3031 RMK A01 T02410158  RH  060%=      5-min Rain = 0
KBY1 141617Z 02008KT 24/16 A3032 RMK A01 T02400160  RH  061%=      5-min Rain = 0
KBY1 141618Z 03013G18KT 24/16 A3032 RMK A01 T02390157  RH  060%=      5-min Rain = 0
KBY1 141619Z 04011KT 24/16 A3032 RMK A01 T02380157  RH  060%=      5-min Rain = 0
KBY1 141620Z 03013KT 24/16 A3032 RMK A01 T02370156  RH  060%=      5-min Rain = 0
KBY1 141621Z 02010KT 24/16 A3032 RMK A01 T02380157  RH  061%=      5-min Rain = 0
KBY1 141622Z 03009KT 24/16 A3031 RMK A01 T02400159  RH  061%=      5-min Rain = 0
KBY1 141623Z 02011KT 24/16 A3031 RMK A01 T02420157  RH  059%=      5-min Rain = 0
KBY1 141624Z 02011KT 24/15 A3031 RMK A01 T02420154  RH  058%=      5-min Rain = 0
KBY1 141625Z 02009KT 24/16 A3031 RMK A01 T02420156  RH  059%=      5-min Rain = 0
KBY1 141626Z 02011KT 24/16 A3031 RMK A01 T02440161  RH  060%=      5-min Rain = 0
KBY1 141627Z 03012KT 25/16 A3031 RMK A01 T02450158  RH  058%=      5-min Rain = 0
KBY1 141628Z 04010KT 24/16 A3031 RMK A01 T02430159  RH  060%=      5-min Rain = 0
KBY1 141629Z 03012KT 24/16 A3031 RMK A01 T02410156  RH  059%=      5-min Rain = 0
KBY1 141630Z 04010KT 24/16 A3031 RMK A01 T02380157  RH  060%=      5-min Rain = 0
KBY1 141631Z 05009KT 24/16 A3031 RMK A01 T02370158  RH  061%=      5-min Rain = 0
KBY1 141632Z 04010KT 24/16 A3031 RMK A01 T02380159  RH  061%=      5-min Rain = 0
KBY1 141633Z 05011KT 24/16 A3031 RMK A01 T02370157  RH  061%=      5-min Rain = 0
KBY1 141634Z 04011KT 24/16 A3031 RMK A01 T02360158  RH  061%=      5-min Rain = 0
KBY1 141635Z 04011KT 24/16 A303 RMK A01 T02350157  RH  062%=      5-min Rain = 0
KBY1 141636Z 06009KT 23/16 A303 RMK A01 T02340155  RH  061%=      5-min Rain = 0
KBY1 141637Z 05008KT 23/16 A303 RMK A01 T02330155  RH  062%=      5-min Rain = 0
KBY1 141638Z 05008KT 23/16 A303 RMK A01 T02330157  RH  062%=      5-min Rain = 0
KBY1 141639Z 05010KT 23/16 A3029 RMK A01 T02330157  RH  062%=      5-min Rain = 0
KBY1 141640Z 05010KT 23/16 A3029 RMK A01 T02330158  RH  063%=      5-min Rain = 0
KBY1 141641Z 07010KT 23/16 A3029 RMK A01 T02320158  RH  063%=      5-min Rain = 0
KBY1 141642Z 08010KT 23/16 A3029 RMK A01 T02320158  RH  063%=      5-min Rain = 0
KBY1 141643Z 08009KT 23/16 A3029 RMK A01 T02310159  RH  064%=      5-min Rain = 0
KBY1 141644Z 08010KT 23/16 A3029 RMK A01 T02300159  RH  064%=      5-min Rain = 0
KBY1 141645Z 05008KT 23/16 A3029 RMK A01 T02310158  RH  064%=      5-min Rain = 0
KBY1 141646Z 06005KT 23/16 A3029 RMK A01 T02310159  RH  064%=      5-min Rain = 0
KBY1 141647Z 07004KT 23/16 A303 RMK A01 T02310159  RH  064%=      5-min Rain = 0
KBY1 141648Z 06003KT 23/16 A303 RMK A01 T02310156  RH  062%=      5-min Rain = 0
KBY1 141649Z 07006KT 23/16 A303 RMK A01 T02320158  RH  063%=      5-min Rain = 0
KBY1 141650Z 07007KT 23/16 A303 RMK A01 T02330158  RH  063%=      5-min Rain = 0
KBY1 141651Z 05005KT 24/16 A303 RMK A01 T02350158  RH  062%=      5-min Rain = 0
KBY1 141652Z 03003KT 24/16 A303 RMK A01 T02350157  RH  061%=      5-min Rain = 0
KBY1 141653Z 03004KT 24/16 A3029 RMK A01 T02370159  RH  062%=      5-min Rain = 0
KBY1 141654Z 03004KT 24/16 A3029 RMK A01 T02400159  RH  060%=      5-min Rain = 0
KBY1 141655Z 04004KT 24/16 A3029 RMK A01 T02440160  RH  060%=      5-min Rain = 0
KBY1 141656Z 03004KT 25/16 A3029 RMK A01 T02480162  RH  059%=      5-min Rain = 0
KBY1 141657Z 01005KT 25/16 A3029 RMK A01 T02500159  RH  057%=      5-min Rain = 0
KBY1 141658Z 03004KT 25/16 A3029 RMK A01 T02500158  RH  057%=      5-min Rain = 0
KBY1 141659Z 04003KT 25/16 A3028 RMK A01 T02490158  RH  057%=      5-min Rain = 0
KBY1 141700Z 08001KT 25/16 A3028 RMK A01 T02490156  RH  056%=      5-min Rain = 0
KBY1 141701Z 05004KT 25/16 A3028 RMK A01 T02490156  RH  056%=      5-min Rain = 0
KBY1 141702Z 07004KT 25/15 A3028 RMK A01 T02500154  RH  055%=      5-min Rain = 0
KBY1 141703Z 07004KT 25/16 A3027 RMK A01 T02510156  RH  056%=      5-min Rain = 0
KBY1 141704Z 05004KT 25/16 A3027 RMK A01 T02530159  RH  056%=      5-min Rain = 0
KBY1 141705Z 06005KT 26/16 A3027 RMK A01 T02570157  RH  054%=      5-min Rain = 0
KBY1 141706Z 04004KT 26/16 A3027 RMK A01 T02580156  RH  053%=      5-min Rain = 0
KBY1 141707Z 07004KT 26/16 A3027 RMK A01 T02580160  RH  055%=      5-min Rain = 0
KBY1 141708Z 08005KT 26/16 A3027 RMK A01 T02580156  RH  053%=      5-min Rain = 0
KBY1 141709Z 10003KT 26/16 A3027 RMK A01 T02560159  RH  055%=      5-min Rain = 0
KBY1 141710Z 10003KT 26/16 A3026 RMK A01 T02550157  RH  054%=      5-min Rain = 0
KBY1 141711Z 14006KT 25/16 A3026 RMK A01 T02540157  RH  055%=      5-min Rain = 0
KBY1 141712Z 13006KT 25/16 A3026 RMK A01 T02540156  RH  055%=      5-min Rain = 0
KBY1 141713Z 13004KT 26/15 A3026 RMK A01 T02550154  RH  054%=      5-min Rain = 0
KBY1 141714Z 15004KT 25/15 A3026 RMK A01 T02530153  RH  054%=      5-min Rain = 0
KBY1 141715Z 19004KT 25/16 A3026 RMK A01 T02530156  RH  055%=      5-min Rain = 0
KBY1 141716Z 18004KT 25/16 A3026 RMK A01 T02540157  RH  055%=      5-min Rain = 0
KBY1 141717Z 15006KT 26/16 A3026 RMK A01 T02580155  RH  053%=      5-min Rain = 0
KBY1 141718Z 18005KT 26/15 A3025 RMK A01 T02610152  RH  051%=      5-min Rain = 0
KBY1 141719Z 20005KT 26/15 A3025 RMK A01 T02590151  RH  051%=      5-min Rain = 0
KBY1 141720Z 19003KT 26/15 A3025 RMK A01 T02570152  RH  052%=      5-min Rain = 0
KBY1 141721Z 21003KT 26/15 A3025 RMK A01 T02550148  RH  052%=      5-min Rain = 0
KBY1 141722Z 19002KT 25/15 A3025 RMK A01 T02530147  RH  052%=      5-min Rain = 0
KBY1 141723Z 19007KT 25/15 A3025 RMK A01 T02520150  RH  053%=      5-min Rain = 0
KBY1 141724Z 19008KT 25/15 A3024 RMK A01 T02520152  RH  054%=      5-min Rain = 0
KBY1 141725Z 19006KT 25/15 A3024 RMK A01 T02500153  RH  055%=      5-min Rain = 0
KBY1 141726Z 16009KT 25/16 A3024 RMK A01 T02500155  RH  056%=      5-min Rain = 0
KBY1 141727Z 15008KT 25/15 A3024 RMK A01 T02500153  RH  055%=      5-min Rain = 0
KBY1 141728Z 16009KT 25/15 A3023 RMK A01 T02490152  RH  055%=      5-min Rain = 0
KBY1 141729Z 17010KT 25/15 A3024 RMK A01 T02480152  RH  055%=      5-min Rain = 0
KBY1 141730Z 16006KT 25/15 A3024 RMK A01 T02470150  RH  055%=      5-min Rain = 0
KBY1 141731Z 17004KT 25/15 A3024 RMK A01 T02460151  RH  056%=      5-min Rain = 0
KBY1 141732Z 18004KT 25/15 A3024 RMK A01 T02460152  RH  056%=      5-min Rain = 0
KBY1 141733Z 19004KT 25/15 A3024 RMK A01 T02460153  RH  056%=      5-min Rain = 0
KBY1 141734Z 20005KT 25/15 A3024 RMK A01 T02460154  RH  056%=      5-min Rain = 0
KBY1 141735Z 20006KT 25/15 A3024 RMK A01 T02460151  RH  056%=      5-min Rain = 0
KBY1 141736Z 20008KT 25/15 A3024 RMK A01 T02460154  RH  056%=      5-min Rain = 0
KBY1 141737Z 19007KT 25/15 A3024 RMK A01 T02460154  RH  057%=      5-min Rain = 0
KBY1 141738Z 20005KT 25/15 A3024 RMK A01 T02460154  RH  057%=      5-min Rain = 0
KBY1 141739Z 20007KT 25/15 A3024 RMK A01 T02470154  RH  056%=      5-min Rain = 0
KBY1 141740Z 20007KT 25/15 A3024 RMK A01 T02470151  RH  055%=      5-min Rain = 0
KBY1 141741Z 21007KT 25/15 A3023 RMK A01 T02470149  RH  055%=      5-min Rain = 0
KBY1 141742Z 19005KT 25/15 A3023 RMK A01 T02470153  RH  056%=      5-min Rain = 0
KBY1 141743Z 18007KT 25/15 A3023 RMK A01 T02480151  RH  055%=      5-min Rain = 0
KBY1 141744Z 18006KT 25/15 A3023 RMK A01 T02470149  RH  054%=      5-min Rain = 0
KBY1 141745Z 18006KT 25/15 A3022 RMK A01 T02480150  RH  054%=      5-min Rain = 0
KBY1 141746Z 18006KT 25/15 A3022 RMK A01 T02470151  RH  055%=      5-min Rain = 0
KBY1 141747Z 18007KT 25/15 A3022 RMK A01 T02470150  RH  055%=      5-min Rain = 0
KBY1 141748Z 18006KT 25/15 A3022 RMK A01 T02470150  RH  055%=      5-min Rain = 0
KBY1 141749Z 19006KT 25/15 A3022 RMK A01 T02470149  RH  054%=      5-min Rain = 0
KBY1 141750Z 20005KT 25/15 A3022 RMK A01 T02470149  RH  054%=      5-min Rain = 0
KBY1 141751Z 20002KT 25/15 A3022 RMK A01 T02480148  RH  054%=      5-min Rain = 0
KBY1 141752Z 18003KT 25/15 A3022 RMK A01 T02480149  RH  054%=      5-min Rain = 0
KBY1 141753Z 21003KT 25/15 A3022 RMK A01 T02490148  RH  053%=      5-min Rain = 0
KBY1 141754Z 22001KT 25/15 A3022 RMK A01 T02500148  RH  053%=      5-min Rain = 0
KBY1 141755Z 16001KT 25/15 A3023 RMK A01 T02510148  RH  053%=      5-min Rain = 0
KBY1 141756Z 12001KT 25/15 A3023 RMK A01 T02520149  RH  053%=      5-min Rain = 0
KBY1 141757Z 15001KT 25/15 A3023 RMK A01 T02540146  RH  051%=      5-min Rain = 0
KBY1 141758Z 23002KT 26/15 A3023 RMK A01 T02560148  RH  051%=      5-min Rain = 0
KBY1 141759Z 24003KT 26/15 A3023 RMK A01 T02570145  RH  050%=      5-min Rain = 0
KBY1 141800Z 25002KT 26/15 A3023 RMK A01 T02570147  RH  051%=      5-min Rain = 0
KBY1 141801Z 24002KT 26/15 A3023 RMK A01 T02600148  RH  050%=      5-min Rain = 0
KBY1 141802Z 22003KT 26/15 A3023 RMK A01 T02620149  RH  050%=      5-min Rain = 0
KBY1 141803Z 24005KT 27/15 A3023 RMK A01 T02650149  RH  049%=      5-min Rain = 0
KBY1 141804Z 23005KT 27/15 A3023 RMK A01 T02650150  RH  049%=      5-min Rain = 0
KBY1 141805Z 23007KT 27/15 A3023 RMK A01 T02660148  RH  048%=      5-min Rain = 0
KBY1 141806Z 24005KT 27/15 A3023 RMK A01 T02660149  RH  049%=      5-min Rain = 0
KBY1 141807Z 25006KT 27/15 A3022 RMK A01 T02660150  RH  049%=      5-min Rain = 0
KBY1 141808Z 27006KT 27/15 A3022 RMK A01 T02670147  RH  048%=      5-min Rain = 0
KBY1 141809Z 22004KT 27/15 A3022 RMK A01 T02660148  RH  048%=      5-min Rain = 0
KBY1 141810Z 16005KT 27/15 A3022 RMK A01 T02660149  RH  049%=      5-min Rain = 0
KBY1 141811Z 16004KT 27/15 A3022 RMK A01 T02680148  RH  048%=      5-min Rain = 0
KBY1 141812Z 17004KT 27/15 A3022 RMK A01 T02690147  RH  047%=      5-min Rain = 0
KBY1 141813Z 18004KT 27/15 A3022 RMK A01 T02700150  RH  048%=      5-min Rain = 0
KBY1 141814Z 19006KT 27/15 A3022 RMK A01 T02730150  RH  047%=      5-min Rain = 0
KBY1 141815Z 19007KT 28/15 A3022 RMK A01 T02750145  RH  045%=      5-min Rain = 0
KBY1 141816Z 19006KT 27/14 A3022 RMK A01 T02730143  RH  045%=      5-min Rain = 0
KBY1 141817Z 18005KT 27/14 A3022 RMK A01 T02710144  RH  046%=      5-min Rain = 0
KBY1 141818Z 14004KT 27/14 A3022 RMK A01 T02690143  RH  046%=      5-min Rain = 0
KBY1 141819Z 14005KT 27/15 A3022 RMK A01 T02680146  RH  047%=      5-min Rain = 0
KBY1 141820Z 13002KT 27/15 A3022 RMK A01 T02690147  RH  047%=      5-min Rain = 0
KBY1 141821Z 18002KT 27/15 A3022 RMK A01 T02720145  RH  046%=      5-min Rain = 0
KBY1 141822Z 24002KT 27/15 A3022 RMK A01 T02730148  RH  046%=      5-min Rain = 0
KBY1 141823Z 26003KT 28/15 A3022 RMK A01 T02750147  RH  045%=      5-min Rain = 0
KBY1 141824Z 24006KT 28/14 A3022 RMK A01 T02770144  RH  044%=      5-min Rain = 0
KBY1 141825Z 28005KT 28/15 A3022 RMK A01 T02780147  RH  045%=      5-min Rain = 0
KBY1 141826Z 26003KT 28/15 A3022 RMK A01 T02790147  RH  044%=      5-min Rain = 0
KBY1 141827Z 22004KT 28/15 A3022 RMK A01 T02800145  RH  044%=      5-min Rain = 0
KBY1 141828Z 20004KT 28/14 A3022 RMK A01 T02770142  RH  044%=      5-min Rain = 0
KBY1 141829Z 23004KT 27/14 A3022 RMK A01 T02740143  RH  045%=      5-min Rain = 0
KBY1 141830Z 24001KT 27/14 A3022 RMK A01 T02730143  RH  045%=      5-min Rain = 0
KBY1 141831Z 21002KT 27/15 A3022 RMK A01 T02740146  RH  046%=      5-min Rain = 0
KBY1 141832Z 30002KT 28/15 A3022 RMK A01 T02770146  RH  045%=      5-min Rain = 0
KBY1 141833Z 25004KT 28/15 A3022 RMK A01 T02790147  RH  044%=      5-min Rain = 0
KBY1 141834Z 26004KT 28/15 A3022 RMK A01 T02810149  RH  045%=      5-min Rain = 0
KBY1 141835Z 34005KT 28/15 A3022 RMK A01 T02820149  RH  044%=      5-min Rain = 0
KBY1 141836Z 30007KT 28/15 A3022 RMK A01 T02820148  RH  044%=      5-min Rain = 0
KBY1 141837Z 30003KT 28/15 A3022 RMK A01 T02790146  RH  044%=      5-min Rain = 0
KBY1 141838Z 32003KT 28/15 A3022 RMK A01 T02780149  RH  045%=      5-min Rain = 0
KBY1 141839Z 31001KT 28/14 A3022 RMK A01 T02800143  RH  043%=      5-min Rain = 0
KBY1 141840Z 30005KT 28/15 A3022 RMK A01 T02800145  RH  044%=      5-min Rain = 0
KBY1 141841Z 26005KT 28/15 A3021 RMK A01 T02800147  RH  044%=      5-min Rain = 0
KBY1 141842Z 28006KT 28/15 A3021 RMK A01 T02800147  RH  044%=      5-min Rain = 0
KBY1 141843Z 33004KT 28/15 A3022 RMK A01 T02810149  RH  045%=      5-min Rain = 0
KBY1 141844Z 33003KT 28/15 A3021 RMK A01 T02800147  RH  044%=      5-min Rain = 0
KBY1 141845Z 32003KT 28/15 A3021 RMK A01 T02800148  RH  044%=      5-min Rain = 0
KBY1 141846Z 34002KT 28/15 A3021 RMK A01 T02790148  RH  045%=      5-min Rain = 0
KBY1 141847Z 35002KT 28/15 A3021 RMK A01 T02790146  RH  044%=      5-min Rain = 0
KBY1 141848Z 32002KT 28/15 A3021 RMK A01 T02780147  RH  045%=      5-min Rain = 0
KBY1 141849Z 29004KT 28/15 A3021 RMK A01 T02790150  RH  045%=      5-min Rain = 0
KBY1 141850Z 30005KT 28/14 A3021 RMK A01 T02820143  RH  043%=      5-min Rain = 0
KBY1 141851Z 32005KT 28/15 A3021 RMK A01 T02810147  RH  044%=      5-min Rain = 0
KBY1 141852Z 28004KT 28/15 A3021 RMK A01 T02820149  RH  044%=      5-min Rain = 0
KBY1 141853Z 25002KT 28/15 A3021 RMK A01 T02820145  RH  043%=      5-min Rain = 0
KBY1 141854Z 19001KT 28/14 A3021 RMK A01 T02800143  RH  043%=      5-min Rain = 0
KBY1 141855Z 25006KT 28/14 A3021 RMK A01 T02800143  RH  043%=      5-min Rain = 0
KBY1 141856Z 28007KT 28/15 A3021 RMK A01 T02790146  RH  044%=      5-min Rain = 0
KBY1 141857Z 30006KT 28/14 A3021 RMK A01 T02800144  RH  043%=      5-min Rain = 0
KBY1 141858Z 29007KT 28/15 A3021 RMK A01 T02800146  RH  044%=      5-min Rain = 0
KBY1 141859Z 29005KT 28/14 A3021 RMK A01 T02810143  RH  043%=      5-min Rain = 0
KBY1 141900Z 32005KT 28/15 A3021 RMK A01 T02820148  RH  044%=      5-min Rain = 0
KBY1 141901Z 33005KT 28/15 A3021 RMK A01 T02820145  RH  043%=      5-min Rain = 0
KBY1 141902Z 35001KT 28/15 A3021 RMK A01 T02820147  RH  044%=      5-min Rain = 0
KBY1 141903Z 29002KT 28/15 A3021 RMK A01 T02820145  RH  043%=      5-min Rain = 0
KBY1 141904Z 31002KT 28/15 A3021 RMK A01 T02830146  RH  043%=      5-min Rain = 0
KBY1 141905Z 33003KT 28/15 A3021 RMK A01 T02830147  RH  043%=      5-min Rain = 0
KBY1 141906Z 34005KT 29/15 A3021 RMK A01 T02850150  RH  044%=      5-min Rain = 0
KBY1 141907Z 34003KT 29/15 A3021 RMK A01 T02860151  RH  044%=      5-min Rain = 0
KBY1 141908Z 30004KT 29/15 A3021 RMK A01 T02880149  RH  043%=      5-min Rain = 0
KBY1 141909Z 29004KT 29/15 A3021 RMK A01 T02870148  RH  043%=      5-min Rain = 0
KBY1 141910Z 27005KT 29/15 A3021 RMK A01 T02880149  RH  043%=      5-min Rain = 0
KBY1 141911Z 25005KT 29/15 A3021 RMK A01 T02880147  RH  042%=      5-min Rain = 0
KBY1 141912Z 29006KT 29/15 A3021 RMK A01 T02880148  RH  042%=      5-min Rain = 0
KBY1 141913Z 26004KT 29/15 A3021 RMK A01 T02870147  RH  043%=      5-min Rain = 0
KBY1 141914Z 27007KT 29/15 A3021 RMK A01 T02870149  RH  043%=      5-min Rain = 0
KBY1 141915Z 26005KT 29/15 A302 RMK A01 T02880145  RH  042%=      5-min Rain = 0
KBY1 141916Z 26004KT 29/15 A302 RMK A01 T02860145  RH  042%=      5-min Rain = 0
KBY1 141917Z 26003KT 29/15 A302 RMK A01 T02850147  RH  043%=      5-min Rain = 0
KBY1 141918Z 27003KT 29/15 A302 RMK A01 T02870149  RH  043%=      5-min Rain = 0
KBY1 141919Z 27004KT 29/15 A302 RMK A01 T02900147  RH  042%=      5-min Rain = 0
KBY1 141920Z 25004KT 29/15 A302 RMK A01 T02930146  RH  041%=      5-min Rain = 0
KBY1 141921Z 28001KT 29/14 A302 RMK A01 T02920141  RH  040%=      5-min Rain = 0
KBY1 141922Z 01001KT 29/14 A302 RMK A01 T02890142  RH  041%=      5-min Rain = 0
KBY1 141923Z 18001KT 29/14 A302 RMK A01 T02890144  RH  041%=      5-min Rain = 0
KBY1 141924Z 20003KT 29/14 A302 RMK A01 T02890140  RH  040%=      5-min Rain = 0
KBY1 141925Z 26006KT 29/14 A302 RMK A01 T02900141  RH  040%=      5-min Rain = 0
KBY1 141926Z 26007KT 29/14 A302 RMK A01 T02920139  RH  039%=      5-min Rain = 0
KBY1 141927Z 26005KT 29/14 A302 RMK A01 T02920139  RH  039%=      5-min Rain = 0
KBY1 141928Z 29005G10KT 29/14 A302 RMK A01 T02920140  RH  040%=      5-min Rain = 0
KBY1 141929Z 31007KT 29/14 A302 RMK A01 T02920139  RH  039%=      5-min Rain = 0
KBY1 141930Z 31006KT 29/14 A302 RMK A01 T02920135  RH  038%=      5-min Rain = 0
KBY1 141931Z 31006KT 29/14 A302 RMK A01 T02910138  RH  039%=      5-min Rain = 0
KBY1 141932Z 34003KT 29/14 A302 RMK A01 T02910138  RH  039%=      5-min Rain = 0
KBY1 141933Z 27005KT 29/14 A302 RMK A01 T02910138  RH  039%=      5-min Rain = 0
KBY1 141934Z 26005KT 29/14 A302 RMK A01 T02920136  RH  038%=      5-min Rain = 0
KBY1 141935Z 29005KT 29/14 A302 RMK A01 T02920135  RH  038%=      5-min Rain = 0
KBY1 141936Z 27003KT 29/13 A3019 RMK A01 T02900134  RH  038%=      5-min Rain = 0
KBY1 141937Z 22006KT 29/14 A3019 RMK A01 T02910135  RH  038%=      5-min Rain = 0
KBY1 141938Z 19004KT 29/13 A3019 RMK A01 T02920129  RH  037%=      5-min Rain = 0
KBY1 141939Z 23001KT 29/13 A3019 RMK A01 T02920134  RH  038%=      5-min Rain = 0
KBY1 141940Z 18001KT 29/14 A3019 RMK A01 T02920137  RH  039%=      5-min Rain = 0
KBY1 141941Z 25005KT 30/14 A3019 RMK A01 T02960141  RH  039%=      5-min Rain = 0
KBY1 141942Z 24005KT 30/14 A3019 RMK A01 T02970136  RH  037%=      5-min Rain = 0
KBY1 141943Z 26005KT 29/13 A3019 RMK A01 T02940134  RH  037%=      5-min Rain = 0
KBY1 141944Z 27005KT 29/13 A3019 RMK A01 T02940134  RH  038%=      5-min Rain = 0
KBY1 141945Z 26005KT 29/13 A3019 RMK A01 T02940133  RH  037%=      5-min Rain = 0
KBY1 141946Z 26003KT 29/13 A3019 RMK A01 T02940134  RH  038%=      5-min Rain = 0
KBY1 141947Z 27004KT 30/13 A3019 RMK A01 T02950134  RH  037%=      5-min Rain = 0
KBY1 141948Z 30003KT 30/14 A3019 RMK A01 T02960138  RH  038%=      5-min Rain = 0
KBY1 141949Z 31005KT 30/14 A3019 RMK A01 T02970139  RH  038%=      5-min Rain = 0
KBY1 141950Z 33003KT 30/14 A3019 RMK A01 T02960136  RH  037%=      5-min Rain = 0
KBY1 141951Z 34001KT 29/14 A3019 RMK A01 T02940136  RH  038%=      5-min Rain = 0
KBY1 141952Z 31005G10KT 29/14 A3019 RMK A01 T02940140  RH  039%=      5-min Rain = 0
KBY1 141953Z 30006KT 30/14 A3019 RMK A01 T02960143  RH  039%=      5-min Rain = 0
KBY1 141954Z 29005KT 30/15 A3018 RMK A01 T03000146  RH  039%=      5-min Rain = 0
KBY1 141955Z 33005KT 30/15 A3018 RMK A01 T03040146  RH  038%=      5-min Rain = 0
KBY1 141956Z 33004KT 31/14 A3018 RMK A01 T03050144  RH  038%=      5-min Rain = 0
KBY1 141957Z 33006KT 30/15 A3018 RMK A01 T03040145  RH  038%=      5-min Rain = 0
KBY1 141958Z 32006KT 30/14 A3018 RMK A01 T03030142  RH  037%=      5-min Rain = 0
KBY1 141959Z 31004KT 30/14 A3018 RMK A01 T03000140  RH  038%=      5-min Rain = 0
KBY1 142000Z 30003KT 30/14 A3018 RMK A01 T02990143  RH  038%=      5-min Rain = 0
KBY1 142001Z 00000KT 30/14 A3018 RMK A01 T03000141  RH  038%=      5-min Rain = 0
KBY1 142002Z 26000KT 30/14 A3018 RMK A01 T03000139  RH  037%=      5-min Rain = 0
KBY1 142003Z 24002KT 30/14 A3018 RMK A01 T03000142  RH  038%=      5-min Rain = 0
KBY1 142004Z 25004KT 30/14 A3018 RMK A01 T03010141  RH  038%=      5-min Rain = 0
KBY1 142005Z 25004KT 30/14 A3018 RMK A01 T03020144  RH  038%=      5-min Rain = 0
KBY1 142006Z 28002KT 30/15 A3018 RMK A01 T03040146  RH  038%=      5-min Rain = 0
KBY1 142007Z 31006KT 31/15 A3018 RMK A01 T03060145  RH  037%=      5-min Rain = 0
KBY1 142008Z 30004KT 31/14 A3018 RMK A01 T03070141  RH  036%=      5-min Rain = 0
KBY1 142009Z 31005KT 31/14 A3018 RMK A01 T03050142  RH  037%=      5-min Rain = 0
KBY1 142010Z 32003KT 30/14 A3017 RMK A01 T03040141  RH  037%=      5-min Rain = 0
KBY1 142011Z 34004KT 30/14 A3017 RMK A01 T03020144  RH  038%=      5-min Rain = 0
KBY1 142012Z 34004KT 30/15 A3017 RMK A01 T03010145  RH  039%=      5-min Rain = 0
KBY1 142013Z 34003G8KT 30/15 A3017 RMK A01 T03010145  RH  039%=      5-min Rain = 0
KBY1 142014Z 30007KT 30/15 A3017 RMK A01 T03010145  RH  039%=      5-min Rain = 0
KBY1 142015Z 28005KT 30/15 A3017 RMK A01 T03010146  RH  039%=      5-min Rain = 0
KBY1 142016Z 25005KT 30/15 A3017 RMK A01 T03010146  RH  039%=      5-min Rain = 0
KBY1 142017Z 26006KT 30/15 A3017 RMK A01 T03030146  RH  039%=      5-min Rain = 0
KBY1 142018Z 26004KT 30/15 A3017 RMK A01 T03030147  RH  039%=      5-min Rain = 0
KBY1 142019Z 27001KT 30/15 A3017 RMK A01 T03030147  RH  039%=      5-min Rain = 0
KBY1 142020Z 09000KT 30/15 A3017 RMK A01 T03040147  RH  039%=      5-min Rain = 0
KBY1 142021Z 31002KT 31/15 A3017 RMK A01 T03060148  RH  038%=      5-min Rain = 0
KBY1 142022Z 35002KT 31/15 A3017 RMK A01 T03070147  RH  038%=      5-min Rain = 0
KBY1 142023Z 32005KT 31/15 A3017 RMK A01 T03090153  RH  039%=      5-min Rain = 0
KBY1 142024Z 32002KT 31/15 A3017 RMK A01 T03130152  RH  038%=      5-min Rain = 0
KBY1 142025Z 31002KT 32/15 A3016 RMK A01 T03150153  RH  037%=      5-min Rain = 0
KBY1 142026Z 32001KT 32/15 A3016 RMK A01 T03180153  RH  037%=      5-min Rain = 0
KBY1 142027Z 25004KT 32/15 A3016 RMK A01 T03190150  RH  036%=      5-min Rain = 0
KBY1 142028Z 25006KT 32/15 A3016 RMK A01 T03180147  RH  036%=      5-min Rain = 0
KBY1 142029Z 27007KT 32/14 A3016 RMK A01 T03150141  RH  035%=      5-min Rain = 0
KBY1 142030Z 25006KT 31/14 A3016 RMK A01 T03130143  RH  036%=      5-min Rain = 0
KBY1 142031Z 23006KT 31/14 A3016 RMK A01 T03110142  RH  036%=      5-min Rain = 0
KBY1 142032Z 23005KT 31/15 A3016 RMK A01 T03120146  RH  037%=      5-min Rain = 0
KBY1 142033Z 30003KT 32/14 A3016 RMK A01 T03150142  RH  035%=      5-min Rain = 0
KBY1 142034Z 29004KT 31/14 A3016 RMK A01 T03140143  RH  035%=      5-min Rain = 0
KBY1 142035Z 27007KT 32/14 A3016 RMK A01 T03160142  RH  035%=      5-min Rain = 0
KBY1 142036Z 28006KT 32/14 A3016 RMK A01 T03160139  RH  034%=      5-min Rain = 0
KBY1 142037Z 29007KT 32/14 A3016 RMK A01 T03150140  RH  034%=      5-min Rain = 0
KBY1 142038Z 28006KT 32/14 A3016 RMK A01 T03150139  RH  034%=      5-min Rain = 0
KBY1 142039Z 29006KT 31/14 A3016 RMK A01 T03130136  RH  034%=      5-min Rain = 0
KBY1 142040Z 28003KT 31/14 A3016 RMK A01 T03100139  RH  035%=      5-min Rain = 0
KBY1 142041Z 26005KT 31/14 A3016 RMK A01 T03100141  RH  036%=      5-min Rain = 0
KBY1 142042Z 27003KT 31/14 A3016 RMK A01 T03110141  RH  036%=      5-min Rain = 0
KBY1 142043Z 25002KT 31/14 A3016 RMK A01 T03110141  RH  035%=      5-min Rain = 0
KBY1 142044Z 32003KT 31/14 A3016 RMK A01 T03120141  RH  036%=      5-min Rain = 0
KBY1 142045Z 33004KT 31/14 A3015 RMK A01 T03120140  RH  035%=      5-min Rain = 0
KBY1 142046Z 31007KT 31/14 A3015 RMK A01 T03110141  RH  036%=      5-min Rain = 0
KBY1 142047Z 26006KT 31/14 A3015 RMK A01 T03110142  RH  036%=      5-min Rain = 0
KBY1 142048Z 25006KT 31/14 A3015 RMK A01 T03130144  RH  036%=      5-min Rain = 0
KBY1 142049Z 26005KT 31/14 A3015 RMK A01 T03140142  RH  035%=      5-min Rain = 0
KBY1 142050Z 26006KT 32/14 A3015 RMK A01 T03150144  RH  035%=      5-min Rain = 0
KBY1 142051Z 26005KT 32/14 A3015 RMK A01 T03170141  RH  034%=      5-min Rain = 0
KBY1 142052Z 25003KT 32/14 A3015 RMK A01 T03170139  RH  034%=      5-min Rain = 0
KBY1 142053Z 27002KT 32/14 A3015 RMK A01 T03160140  RH  034%=      5-min Rain = 0
KBY1 142054Z 29005KT 32/14 A3015 RMK A01 T03170142  RH  035%=      5-min Rain = 0
KBY1 142055Z 30004KT 32/14 A3015 RMK A01 T03180138  RH  033%=      5-min Rain = 0
KBY1 142056Z 30001KT 32/14 A3015 RMK A01 T03170139  RH  034%=      5-min Rain = 0
KBY1 142057Z 34002KT 32/14 A3015 RMK A01 T03170143  RH  035%=      5-min Rain = 0
KBY1 142058Z 35003KT 32/14 A3014 RMK A01 T03190142  RH  034%=      5-min Rain = 0
KBY1 142059Z 34002KT 32/14 A3014 RMK A01 T03180143  RH  035%=      5-min Rain = 0
KBY1 142100Z 24004KT 32/14 A3014 RMK A01 T03180142  RH  034%=      5-min Rain = 0
KBY1 142101Z 27002KT 32/14 A3014 RMK A01 T03170141  RH  034%=      5-min Rain = 0
KBY1 142102Z 30003KT 32/14 A3014 RMK A01 T03180143  RH  035%=      5-min Rain = 0
KBY1 142103Z 31005KT 32/14 A3014 RMK A01 T03190141  RH  034%=      5-min Rain = 0
KBY1 142104Z 32007KT 32/14 A3014 RMK A01 T03190144  RH  034%=      5-min Rain = 0
KBY1 142105Z 32006KT 32/14 A3014 RMK A01 T03200143  RH  034%=      5-min Rain = 0
KBY1 142106Z 32004KT 32/14 A3014 RMK A01 T03200140  RH  034%=      5-min Rain = 0
KBY1 142107Z 31005KT 32/14 A3014 RMK A01 T03190140  RH  034%=      5-min Rain = 0
KBY1 142108Z 28003KT 32/14 A3014 RMK A01 T03200144  RH  034%=      5-min Rain = 0
KBY1 142109Z 26002KT 32/14 A3014 RMK A01 T03230142  RH  033%=      5-min Rain = 0
KBY1 142110Z 25002KT 33/14 A3014 RMK A01 T03250141  RH  033%=      5-min Rain = 0
KBY1 142111Z 24002KT 33/14 A3014 RMK A01 T03260141  RH  033%=      5-min Rain = 0
KBY1 142112Z 28002KT 33/14 A3014 RMK A01 T03280143  RH  033%=      5-min Rain = 0
KBY1 142113Z 28005KT 33/14 A3014 RMK A01 T03290140  RH  032%=      5-min Rain = 0
KBY1 142114Z 29007KT 33/14 A3014 RMK A01 T03260139  RH  032%=      5-min Rain = 0
KBY1 142115Z 30005KT 32/14 A3014 RMK A01 T03240138  RH  032%=      5-min Rain = 0
KBY1 142116Z 31003KT 32/14 A3014 RMK A01 T03230137  RH  032%=      5-min Rain = 0
KBY1 142117Z 31005KT 32/14 A3014 RMK A01 T03220137  RH  032%=      5-min Rain = 0
KBY1 142118Z 35004KT 32/14 A3014 RMK A01 T03220140  RH  033%=      5-min Rain = 0
KBY1 142119Z 34007KT 33/14 A3014 RMK A01 T03250138  RH  032%=      5-min Rain = 0
KBY1 142120Z 34006KT 32/13 A3014 RMK A01 T03240134  RH  032%=      5-min Rain = 0
KBY1 142121Z 30005KT 32/14 A3014 RMK A01 T03220138  RH  033%=      5-min Rain = 0
KBY1 142122Z 29004KT 32/14 A3014 RMK A01 T03230136  RH  032%=      5-min Rain = 0
KBY1 142123Z 24005KT 32/14 A3014 RMK A01 T03240136  RH  032%=      5-min Rain = 0
KBY1 142124Z 22004KT 33/14 A3013 RMK A01 T03250136  RH  032%=      5-min Rain = 0
KBY1 142125Z 20004KT 33/14 A3013 RMK A01 T03260136  RH  032%=      5-min Rain = 0
KBY1 142126Z 20004KT 33/14 A3013 RMK A01 T03270137  RH  032%=      5-min Rain = 0
KBY1 142127Z 19003KT 33/14 A3013 RMK A01 T03260138  RH  032%=      5-min Rain = 0
KBY1 142128Z 22003G8KT 33/14 A3013 RMK A01 T03260137  RH  032%=      5-min Rain = 0
KBY1 142129Z 29007G12KT 33/14 A3013 RMK A01 T03270138  RH  032%=      5-min Rain = 0
KBY1 142130Z 30008KT 33/14 A3013 RMK A01 T03280138  RH  032%=      5-min Rain = 0
KBY1 142131Z 30009KT 33/14 A3013 RMK A01 T03290135  RH  031%=      5-min Rain = 0
KBY1 142132Z 31007KT 33/13 A3013 RMK A01 T03260133  RH  031%=      5-min Rain = 0
KBY1 142133Z 29005KT 32/13 A3013 RMK A01 T03230134  RH  032%=      5-min Rain = 0
KBY1 142134Z 26003KT 32/13 A3013 RMK A01 T03230134  RH  032%=      5-min Rain = 0
KBY1 142135Z 28003KT 32/14 A3013 RMK A01 T03240136  RH  032%=      5-min Rain = 0
KBY1 142136Z 30004KT 33/13 A3013 RMK A01 T03260130  RH  030%=      5-min Rain = 0
KBY1 142137Z 32002KT 32/13 A3013 RMK A01 T03240130  RH  031%=      5-min Rain = 0
KBY1 142138Z 35001KT 32/13 A3013 RMK A01 T03240132  RH  031%=      5-min Rain = 0
KBY1 142139Z 35002KT 33/13 A3013 RMK A01 T03260134  RH  031%=      5-min Rain = 0
KBY1 142140Z 33003KT 33/13 A3013 RMK A01 T03270132  RH  031%=      5-min Rain = 0
KBY1 142141Z 34001KT 33/13 A3013 RMK A01 T03260130  RH  030%=      5-min Rain = 0
KBY1 142142Z 28004KT 33/13 A3013 RMK A01 T03260132  RH  031%=      5-min Rain = 0
KBY1 142143Z 30007KT 33/13 A3013 RMK A01 T03270133  RH  031%=      5-min Rain = 0
KBY1 142144Z 31004KT 33/13 A3013 RMK A01 T03260134  RH  031%=      5-min Rain = 0
KBY1 142145Z 31004KT 33/13 A3013 RMK A01 T03250133  RH  031%=      5-min Rain = 0
KBY1 142146Z 33003KT 32/14 A3013 RMK A01 T03240135  RH  032%=      5-min Rain = 0
KBY1 142147Z 01004KT 33/13 A3013 RMK A01 T03250134  RH  031%=      5-min Rain = 0
KBY1 142148Z 35004KT 33/13 A3013 RMK A01 T03250131  RH  031%=      5-min Rain = 0
KBY1 142149Z 01003KT 32/13 A3013 RMK A01 T03230133  RH  031%=      5-min Rain = 0
KBY1 142150Z 36004KT 32/13 A3013 RMK A01 T03240132  RH  031%=      5-min Rain = 0
KBY1 142151Z 35003KT 32/13 A3012 RMK A01 T03230132  RH  031%=      5-min Rain = 0
KBY1 142152Z 03002KT 32/13 A3012 RMK A01 T03230131  RH  031%=      5-min Rain = 0
KBY1 142153Z 06002KT 32/13 A3012 RMK A01 T03220131  RH  031%=      5-min Rain = 0
KBY1 142154Z 36002KT 32/14 A3012 RMK A01 T03230135  RH  032%=      5-min Rain = 0
KBY1 142155Z 36000KT 33/14 A3012 RMK A01 T03250135  RH  032%=      5-min Rain = 0
KBY1 142156Z 32002KT 33/14 A3012 RMK A01 T03280137  RH  032%=      5-min Rain = 0
KBY1 142157Z 27004KT 33/14 A3012 RMK A01 T03300135  RH  031%=      5-min Rain = 0
KBY1 142158Z 29003KT 33/13 A3012 RMK A01 T03300131  RH  030%=      5-min Rain = 0
KBY1 142159Z 33002KT 33/13 A3012 RMK A01 T03280128  RH  030%=      5-min Rain = 0
KBY1 142200Z 28004KT 33/13 A3012 RMK A01 T03260131  RH  031%=      5-min Rain = 0
KBY1 142201Z 29003KT 33/13 A3012 RMK A01 T03280132  RH  031%=      5-min Rain = 0
KBY1 142202Z 27001KT 33/13 A3012 RMK A01 T03280130  RH  030%=      5-min Rain = 0
KBY1 142203Z 23000KT 33/13 A3012 RMK A01 T03290133  RH  031%=      5-min Rain = 0
KBY1 142204Z 12001KT 33/14 A3011 RMK A01 T03300135  RH  031%=      5-min Rain = 0
KBY1 142205Z 18002KT 33/14 A3011 RMK A01 T03330139  RH  031%=      5-min Rain = 0
KBY1 142206Z 20003KT 34/13 A3011 RMK A01 T03350133  RH  029%=      5-min Rain = 0
KBY1 142207Z 18002KT 33/13 A3011 RMK A01 T03320131  RH  030%=      5-min Rain = 0
KBY1 142208Z 16001KT 33/13 A3011 RMK A01 T03310130  RH  030%=      5-min Rain = 0
KBY1 142209Z 30003KT 33/14 A3011 RMK A01 T03310135  RH  031%=      5-min Rain = 0
KBY1 142210Z 29001KT 33/13 A3011 RMK A01 T03320131  RH  030%=      5-min Rain = 0
KBY1 142211Z 29001KT 33/13 A3011 RMK A01 T03320132  RH  030%=      5-min Rain = 0
KBY1 142212Z 26005KT 33/13 A3011 RMK A01 T03320133  RH  030%=      5-min Rain = 0
KBY1 142213Z 29006KT 33/13 A3011 RMK A01 T03330134  RH  030%=      5-min Rain = 0
KBY1 142214Z 29006KT 33/13 A3011 RMK A01 T03320132  RH  030%=      5-min Rain = 0
KBY1 142215Z 31002KT 33/13 A3011 RMK A01 T03300133  RH  030%=      5-min Rain = 0
KBY1 142216Z 32001KT 33/14 A3011 RMK A01 T03300136  RH  031%=      5-min Rain = 0
KBY1 142217Z 02001KT 33/13 A3011 RMK A01 T03320133  RH  030%=      5-min Rain = 0
KBY1 142218Z 12002KT 33/14 A3011 RMK A01 T03310136  RH  031%=      5-min Rain = 0
KBY1 142219Z 32002KT 33/14 A3011 RMK A01 T03320138  RH  031%=      5-min Rain = 0
KBY1 142220Z 29005KT 33/14 A3011 RMK A01 T03340138  RH  031%=      5-min Rain = 0
KBY1 142221Z 31005KT 33/14 A3011 RMK A01 T03340141  RH  031%=      5-min Rain = 0
KBY1 142222Z 30005KT 34/14 A3011 RMK A01 T03350137  RH  030%=      5-min Rain = 0
KBY1 142223Z 31005KT 33/14 A3011 RMK A01 T03330136  RH  030%=      5-min Rain = 0
KBY1 142224Z 29004KT 33/14 A3011 RMK A01 T03320137  RH  031%=      5-min Rain = 0
KBY1 142225Z 25004KT 33/14 A3011 RMK A01 T03330140  RH  031%=      5-min Rain = 0
KBY1 142226Z 29006KT 34/14 A3011 RMK A01 T03350140  RH  031%=      5-min Rain = 0
KBY1 142227Z 33005KT 34/14 A3011 RMK A01 T03360138  RH  030%=      5-min Rain = 0
KBY1 142228Z 31006KT 34/14 A3011 RMK A01 T03360139  RH  031%=      5-min Rain = 0
KBY1 142229Z 31005KT 34/14 A3011 RMK A01 T03350136  RH  030%=      5-min Rain = 0
KBY1 142230Z 30006KT 33/14 A3011 RMK A01 T03340136  RH  030%=      5-min Rain = 0
KBY1 142231Z 31006KT 33/14 A3011 RMK A01 T03320136  RH  030%=      5-min Rain = 0
KBY1 142232Z 33004KT 33/14 A301 RMK A01 T03320139  RH  031%=      5-min Rain = 0
KBY1 142233Z 33003KT 33/14 A301 RMK A01 T03330138  RH  031%=      5-min Rain = 0
KBY1 142234Z 31006KT 33/14 A301 RMK A01 T03330136  RH  030%=      5-min Rain = 0
KBY1 142235Z 29008KT 33/14 A301 RMK A01 T03330136  RH  030%=      5-min Rain = 0
KBY1 142236Z 30008KT 33/14 A301 RMK A01 T03320137  RH  031%=      5-min Rain = 0
KBY1 142237Z 31005KT 33/14 A301 RMK A01 T03300135  RH  031%=      5-min Rain = 0
KBY1 142238Z 29004KT 33/14 A301 RMK A01 T03290138  RH  031%=      5-min Rain = 0
KBY1 142239Z 29005KT 33/14 A301 RMK A01 T03290138  RH  031%=      5-min Rain = 0
KBY1 142240Z 31003KT 33/14 A301 RMK A01 T03300138  RH  031%=      5-min Rain = 0
KBY1 142241Z 35004KT 33/14 A301 RMK A01 T03310139  RH  031%=      5-min Rain = 0
KBY1 142242Z 36002KT 33/14 A301 RMK A01 T03310138  RH  031%=      5-min Rain = 0
KBY1 142243Z 01003KT 33/14 A301 RMK A01 T03310138  RH  031%=      5-min Rain = 0
KBY1 142244Z 31005KT 33/14 A301 RMK A01 T03310140  RH  032%=      5-min Rain = 0
KBY1 142245Z 30005KT 33/14 A301 RMK A01 T03310139  RH  031%=      5-min Rain = 0
KBY1 142246Z 30004KT 33/14 A301 RMK A01 T03320141  RH  031%=      5-min Rain = 0
KBY1 142247Z 28004KT 33/14 A301 RMK A01 T03330136  RH  030%=      5-min Rain = 0
KBY1 142248Z 33003KT 33/14 A301 RMK A01 T03300139  RH  031%=      5-min Rain = 0
KBY1 142249Z 33004KT 33/14 A301 RMK A01 T03310141  RH  032%=      5-min Rain = 0
KBY1 142250Z 32003KT 33/14 A301 RMK A01 T03330141  RH  031%=      5-min Rain = 0
KBY1 142251Z 26004KT 34/14 A301 RMK A01 T03350141  RH  031%=      5-min Rain = 0
KBY1 142252Z 25005KT 34/14 A301 RMK A01 T03350139  RH  031%=      5-min Rain = 0
KBY1 142253Z 23004KT 33/14 A301 RMK A01 T03340140  RH  031%=      5-min Rain = 0
KBY1 142254Z 22002KT 33/14 A301 RMK A01 T03330138  RH  031%=      5-min Rain = 0
KBY1 142255Z 17001KT 33/14 A301 RMK A01 T03330138  RH  031%=      5-min Rain = 0
KBY1 142256Z 15001KT 33/14 A301 RMK A01 T03330140  RH  031%=      5-min Rain = 0
KBY1 142257Z 18001KT 34/14 A301 RMK A01 T03350138  RH  031%=      5-min Rain = 0
KBY1 142258Z 22001KT 34/14 A301 RMK A01 T03350140  RH  031%=      5-min Rain = 0
KBY1 142259Z 26002KT 34/14 A301 RMK A01 T03350140  RH  031%=      5-min Rain = 0
KBY1 142300Z 27002KT 34/14 A301 RMK A01 T03350140  RH  031%=      5-min Rain = 0
KBY1 142301Z 31001KT 34/14 A301 RMK A01 T03350139  RH  031%=      5-min Rain = 0
KBY1 142302Z 23003KT 34/14 A301 RMK A01 T03350139  RH  031%=      5-min Rain = 0
KBY1 142303Z 25004KT 34/14 A301 RMK A01 T03360140  RH  031%=      5-min Rain = 0
KBY1 142304Z 24006KT 34/14 A301 RMK A01 T03370142  RH  031%=      5-min Rain = 0
KBY1 142305Z 23007KT 34/14 A301 RMK A01 T03380141  RH  031%=      5-min Rain = 0
KBY1 142306Z 22006KT 34/14 A301 RMK A01 T03360137  RH  030%=      5-min Rain = 0
KBY1 142307Z 22002KT 33/14 A301 RMK A01 T03310136  RH  031%=      5-min Rain = 0
KBY1 142308Z 23002KT 33/14 A301 RMK A01 T03290136  RH  031%=      5-min Rain = 0
KBY1 142309Z 27003KT 33/14 A301 RMK A01 T03290137  RH  031%=      5-min Rain = 0
KBY1 142310Z 26004KT 33/14 A301 RMK A01 T03280137  RH  031%=      5-min Rain = 0
KBY1 142311Z 26004KT 33/14 A301 RMK A01 T03290137  RH  031%=      5-min Rain = 0
KBY1 142312Z 30005KT 33/14 A301 RMK A01 T03290137  RH  031%=      5-min Rain = 0
KBY1 142313Z 30004KT 33/14 A301 RMK A01 T03280139  RH  032%=      5-min Rain = 0
KBY1 142314Z 32003KT 33/14 A301 RMK A01 T03270136  RH  031%=      5-min Rain = 0
KBY1 142315Z 32003KT 33/14 A301 RMK A01 T03270136  RH  032%=      5-min Rain = 0
KBY1 142316Z 34001KT 33/14 A301 RMK A01 T03270135  RH  031%=      5-min Rain = 0
KBY1 142317Z 01001KT 33/13 A301 RMK A01 T03280133  RH  031%=      5-min Rain = 0
KBY1 142318Z 02002KT 33/13 A301 RMK A01 T03280134  RH  031%=      5-min Rain = 0
KBY1 142319Z 00002KT 33/14 A301 RMK A01 T03290139  RH  032%=      5-min Rain = 0
KBY1 142320Z 34002KT 33/14 A301 RMK A01 T03310135  RH  031%=      5-min Rain = 0
KBY1 142321Z 32002KT 33/14 A301 RMK A01 T03310135  RH  030%=      5-min Rain = 0
KBY1 142322Z 31001KT 33/13 A301 RMK A01 T03320132  RH  030%=      5-min Rain = 0
KBY1 142323Z 32000KT 33/13 A301 RMK A01 T03340132  RH  030%=      5-min Rain = 0
KBY1 142324Z 00000KT 34/13 A301 RMK A01 T03350131  RH  029%=      5-min Rain = 0
KBY1 142325Z 00000KT 34/13 A3009 RMK A01 T03360130  RH  029%=      5-min Rain = 0
KBY1 142326Z 03001KT 34/13 A3009 RMK A01 T03360132  RH  029%=      5-min Rain = 0
KBY1 142327Z 03001KT 34/13 A3009 RMK A01 T03360133  RH  029%=      5-min Rain = 0
KBY1 142328Z 05001KT 33/13 A3009 RMK A01 T03340131  RH  029%=      5-min Rain = 0
KBY1 142329Z 13000KT 33/13 A3009 RMK A01 T03320131  RH  030%=      5-min Rain = 0
KBY1 142330Z 00000KT 33/14 A3009 RMK A01 T03310135  RH  031%=      5-min Rain = 0
KBY1 142331Z 24000KT 33/14 A3009 RMK A01 T03330137  RH  031%=      5-min Rain = 0
KBY1 142332Z 26003KT 34/14 A3009 RMK A01 T03360137  RH  030%=      5-min Rain = 0
KBY1 142333Z 24003KT 34/13 A3009 RMK A01 T03380134  RH  029%=      5-min Rain = 0
KBY1 142334Z 33005KT 34/14 A3009 RMK A01 T03370135  RH  030%=      5-min Rain = 0
KBY1 142335Z 36004KT 34/14 A3009 RMK A01 T03350136  RH  030%=      5-min Rain = 0
KBY1 142336Z 00004KT 33/14 A3009 RMK A01 T03320136  RH  031%=      5-min Rain = 0
KBY1 142337Z 00003KT 33/14 A3009 RMK A01 T03310135  RH  031%=      5-min Rain = 0
KBY1 142338Z 01002KT 33/13 A3009 RMK A01 T03300134  RH  030%=      5-min Rain = 0
KBY1 142339Z 02002KT 33/13 A3009 RMK A01 T03300133  RH  030%=      5-min Rain = 0
KBY1 142340Z 02002KT 33/13 A3009 RMK A01 T03290132  RH  030%=      5-min Rain = 0
KBY1 142341Z 04003KT 33/14 A3009 RMK A01 T03290137  RH  031%=      5-min Rain = 0
KBY1 142342Z 05003KT 33/14 A3009 RMK A01 T03300140  RH  032%=      5-min Rain = 0
KBY1 142343Z 05003KT 33/14 A3009 RMK A01 T03300138  RH  031%=      5-min Rain = 0
KBY1 142344Z 06003KT 33/14 A3009 RMK A01 T03300139  RH  032%=      5-min Rain = 0
KBY1 142345Z 05004KT 33/14 A3009 RMK A01 T03290139  RH  032%=      5-min Rain = 0
KBY1 142346Z 04003KT 33/14 A3009 RMK A01 T03280137  RH  031%=      5-min Rain = 0
KBY1 142347Z 04003KT 33/14 A3009 RMK A01 T03270137  RH  032%=      5-min Rain = 0
KBY1 142348Z 03002KT 33/14 A3009 RMK A01 T03270137  RH  032%=      5-min Rain = 0
KBY1 142349Z 02002KT 33/14 A3009 RMK A01 T03270135  RH  031%=      5-min Rain = 0
KBY1 142350Z 00001KT 33/14 A3009 RMK A01 T03270135  RH  031%=      5-min Rain = 0
KBY1 142351Z 02001KT 33/14 A3009 RMK A01 T03270137  RH  032%=      5-min Rain = 0
KBY1 142352Z 03001KT 33/14 A3009 RMK A01 T03260136  RH  032%=      5-min Rain = 0
KBY1 142353Z 04002KT 33/14 A3009 RMK A01 T03270138  RH  032%=      5-min Rain = 0
KBY1 142354Z 06002KT 33/14 A3009 RMK A01 T03280139  RH  032%=      5-min Rain = 0
KBY1 142355Z 05002KT 33/14 A3009 RMK A01 T03280136  RH  031%=      5-min Rain = 0
KBY1 142356Z 07002KT 33/14 A3009 RMK A01 T03280137  RH  032%=      5-min Rain = 0
KBY1 142357Z 07001KT 33/14 A3009 RMK A01 T03280137  RH  031%=      5-min Rain = 0
KBY1 142358Z 08001KT 33/14 A3009 RMK A01 T03280135  RH  031%=      5-min Rain = 0
KBY1 142359Z 00000KT 33/14 A3009 RMK A01 T03290135  RH  031%=      5-min Rain = 0
KBY1 150000Z 10000KT 33/13 A3009 RMK A01 T03300134  RH  030%=      5-min Rain = 0
KBY1 150001Z 00000KT 33/13 A3009 RMK A01 T03310134  RH  030%=      5-min Rain = 0
KBY1 150002Z 16001KT 33/14 A3009 RMK A01 T03310135  RH  031%=      5-min Rain = 0
KBY1 150003Z 14000KT 33/14 A3009 RMK A01 T03310135  RH  031%=      5-min Rain = 0
KBY1 150004Z 19001KT 33/14 A3009 RMK A01 T03300136  RH  031%=      5-min Rain = 0
KBY1 150005Z 00000KT 33/14 A3009 RMK A01 T03300137  RH  031%=      5-min Rain = 0
KBY1 150006Z 00000KT 33/14 A3009 RMK A01 T03300137  RH  031%=      5-min Rain = 0
KBY1 150007Z 02000KT 33/13 A3009 RMK A01 T03310134  RH  030%=      5-min Rain = 0
KBY1 150008Z 02000KT 33/13 A3009 RMK A01 T03300129  RH  030%=      5-min Rain = 0
KBY1 150009Z 31000KT 33/14 A3009 RMK A01 T03290137  RH  031%=      5-min Rain = 0
KBY1 150010Z 32001KT 33/13 A3009 RMK A01 T03290134  RH  031%=      5-min Rain = 0
KBY1 150011Z 33001KT 33/13 A3009 RMK A01 T03290134  RH  031%=      5-min Rain = 0
KBY1 150012Z 00000KT 33/13 A3009 RMK A01 T03300132  RH  030%=      5-min Rain = 0
KBY1 150013Z 00000KT 33/13 A3009 RMK A01 T03300129  RH  029%=      5-min Rain = 0
KBY1 150014Z 03000KT 33/13 A3009 RMK A01 T03300127  RH  029%=      5-min Rain = 0
KBY1 150015Z 00000KT 33/13 A3009 RMK A01 T03300127  RH  029%=      5-min Rain = 0
KBY1 150016Z 06001KT 33/13 A3009 RMK A01 T03290127  RH  029%=      5-min Rain = 0
KBY1 150017Z 08002KT 33/14 A3009 RMK A01 T03290136  RH  031%=      5-min Rain = 0
KBY1 150018Z 10002KT 33/14 A3009 RMK A01 T03270135  RH  031%=      5-min Rain = 0
KBY1 150019Z 08001KT 33/14 A3009 RMK A01 T03270135  RH  031%=      5-min Rain = 0
KBY1 150020Z 00000KT 33/14 A3009 RMK A01 T03270138  RH  032%=      5-min Rain = 0
KBY1 150021Z 24001KT 33/14 A3009 RMK A01 T03270136  RH  031%=      5-min Rain = 0
KBY1 150022Z 20002KT 33/14 A3009 RMK A01 T03270139  RH  032%=      5-min Rain = 0
KBY1 150023Z 17000KT 33/13 A3009 RMK A01 T03270134  RH  031%=      5-min Rain = 0
KBY1 150024Z 00000KT 33/14 A3009 RMK A01 T03270135  RH  031%=      5-min Rain = 0
KBY1 150025Z 00000KT 33/13 A3009 RMK A01 T03270132  RH  031%=      5-min Rain = 0
KBY1 150026Z 20001KT 33/13 A3009 RMK A01 T03260134  RH  031%=      5-min Rain = 0
KBY1 150027Z 18001KT 33/14 A3009 RMK A01 T03260139  RH  032%=      5-min Rain = 0
KBY1 150028Z 16001KT 33/15 A3009 RMK A01 T03250145  RH  034%=      5-min Rain = 0
KBY1 150029Z 17001KT 32/15 A3009 RMK A01 T03240145  RH  034%=      5-min Rain = 0
KBY1 150030Z 18002KT 32/14 A3009 RMK A01 T03230141  RH  033%=      5-min Rain = 0
KBY1 150031Z 15001KT 32/14 A3009 RMK A01 T03230140  RH  033%=      5-min Rain = 0
KBY1 150032Z 15001KT 32/14 A3009 RMK A01 T03230143  RH  034%=      5-min Rain = 0
KBY1 150033Z 16001KT 32/14 A3009 RMK A01 T03230144  RH  034%=      5-min Rain = 0
KBY1 150034Z 15001KT 32/15 A3009 RMK A01 T03230146  RH  034%=      5-min Rain = 0
KBY1 150035Z 13002KT 32/15 A3009 RMK A01 T03220148  RH  035%=      5-min Rain = 0
KBY1 150036Z 13001KT 32/15 A3009 RMK A01 T03220148  RH  035%=      5-min Rain = 0
KBY1 150037Z 11002KT 32/15 A3009 RMK A01 T03210150  RH  036%=      5-min Rain = 0
KBY1 150038Z 11004KT 32/15 A3009 RMK A01 T03200150  RH  036%=      5-min Rain = 0
KBY1 150039Z 10004KT 32/15 A3009 RMK A01 T03190149  RH  036%=      5-min Rain = 0
KBY1 150040Z 10005KT 32/15 A301 RMK A01 T03180154  RH  037%=      5-min Rain = 0
KBY1 150041Z 10006KT 32/16 A301 RMK A01 T03160156  RH  038%=      5-min Rain = 0
KBY1 150042Z 10007KT 32/16 A301 RMK A01 T03150155  RH  038%=      5-min Rain = 0
KBY1 150043Z 11009KT 31/15 A301 RMK A01 T03130152  RH  038%=      5-min Rain = 0
KBY1 150044Z 13008KT 31/15 A301 RMK A01 T03120147  RH  037%=      5-min Rain = 0
KBY1 150045Z 13007KT 31/15 A301 RMK A01 T03120148  RH  037%=      5-min Rain = 0
KBY1 150046Z 12007KT 31/15 A301 RMK A01 T03120148  RH  037%=      5-min Rain = 0
KBY1 150047Z 12006KT 31/15 A301 RMK A01 T03120149  RH  037%=      5-min Rain = 0
KBY1 150048Z 12006KT 31/15 A301 RMK A01 T03110150  RH  038%=      5-min Rain = 0
KBY1 150049Z 12005KT 31/15 A301 RMK A01 T03100151  RH  038%=      5-min Rain = 0
KBY1 150050Z 12004KT 31/15 A301 RMK A01 T03090154  RH  039%=      5-min Rain = 0
KBY1 150051Z 12003KT 31/16 A301 RMK A01 T03080155  RH  040%=      5-min Rain = 0
KBY1 150052Z 11006KT 31/15 A301 RMK A01 T03060154  RH  040%=      5-min Rain = 0
KBY1 150053Z 12006KT 31/15 A301 RMK A01 T03060153  RH  040%=      5-min Rain = 0
KBY1 150054Z 12007KT 31/15 A301 RMK A01 T03060153  RH  040%=      5-min Rain = 0
KBY1 150055Z 12006KT 31/15 A301 RMK A01 T03050153  RH  040%=      5-min Rain = 0
KBY1 150056Z 13006KT 31/15 A301 RMK A01 T03050152  RH  040%=      5-min Rain = 0
KBY1 150057Z 12005KT 31/15 A301 RMK A01 T03050152  RH  039%=      5-min Rain = 0
KBY1 150058Z 12006KT 30/15 A301 RMK A01 T03040151  RH  039%=      5-min Rain = 0
KBY1 150059Z 11005KT 30/15 A301 RMK A01 T03040151  RH  039%=      5-min Rain = 0
KBY1 150100Z 11004KT 30/15 A301 RMK A01 T03040153  RH  040%=      5-min Rain = 0
KBY1 150101Z 11004KT 30/15 A301 RMK A01 T03030153  RH  040%=      5-min Rain = 0
KBY1 150102Z 11004KT 30/15 A301 RMK A01 T03020151  RH  040%=      5-min Rain = 0
KBY1 150103Z 12004KT 30/15 A301 RMK A01 T03020152  RH  040%=      5-min Rain = 0
KBY1 150104Z 11004KT 30/15 A3011 RMK A01 T03020152  RH  040%=      5-min Rain = 0
KBY1 150105Z 12004KT 30/15 A3011 RMK A01 T03010152  RH  041%=      5-min Rain = 0
KBY1 150106Z 12004KT 30/15 A3011 RMK A01 T03000153  RH  041%=      5-min Rain = 0
KBY1 150107Z 11004KT 30/15 A3011 RMK A01 T02990153  RH  041%=      5-min Rain = 0
KBY1 150108Z 12004KT 30/15 A3011 RMK A01 T02980153  RH  041%=      5-min Rain = 0
KBY1 150109Z 11004KT 30/15 A3011 RMK A01 T02980153  RH  041%=      5-min Rain = 0
KBY1 150110Z 11004KT 30/15 A3011 RMK A01 T02970154  RH  042%=      5-min Rain = 0
KBY1 150111Z 11005KT 30/15 A3011 RMK A01 T02960153  RH  042%=      5-min Rain = 0
KBY1 150112Z 11005KT 30/15 A3011 RMK A01 T02960153  RH  042%=      5-min Rain = 0
KBY1 150113Z 11005KT 30/15 A3011 RMK A01 T02950154  RH  042%=      5-min Rain = 0
KBY1 150114Z 11005KT 29/16 A3011 RMK A01 T02940155  RH  043%=      5-min Rain = 0
KBY1 150115Z 11005KT 29/16 A3011 RMK A01 T02930155  RH  043%=      5-min Rain = 0
KBY1 150116Z 11004KT 29/16 A3011 RMK A01 T02930156  RH  044%=      5-min Rain = 0
KBY1 150117Z 11004KT 29/16 A3011 RMK A01 T02920157  RH  044%=      5-min Rain = 0
KBY1 150118Z 12004KT 29/16 A3011 RMK A01 T02910156  RH  044%=      5-min Rain = 0
KBY1 150119Z 12004KT 29/16 A3011 RMK A01 T02910156  RH  044%=      5-min Rain = 0
KBY1 150120Z 12003KT 29/16 A3011 RMK A01 T02900157  RH  044%=      5-min Rain = 0
KBY1 150121Z 11002KT 29/16 A3011 RMK A01 T02890157  RH  045%=      5-min Rain = 0
KBY1 150122Z 11003KT 29/16 A3011 RMK A01 T02890157  RH  045%=      5-min Rain = 0
KBY1 150123Z 12003KT 29/16 A3011 RMK A01 T02880157  RH  045%=      5-min Rain = 0
KBY1 150124Z 11003KT 29/16 A3011 RMK A01 T02880157  RH  045%=      5-min Rain = 0
KBY1 150125Z 12003KT 29/16 A3011 RMK A01 T02880159  RH  045%=      5-min Rain = 0
KBY1 150126Z 11002KT 29/16 A3011 RMK A01 T02870159  RH  046%=      5-min Rain = 0
KBY1 150127Z 11003KT 29/16 A3011 RMK A01 T02870159  RH  046%=      5-min Rain = 0
KBY1 150128Z 12002KT 29/16 A3011 RMK A01 T02870157  RH  045%=      5-min Rain = 0
KBY1 150129Z 12002KT 29/16 A3011 RMK A01 T02870159  RH  046%=      5-min Rain = 0
KBY1 150130Z 12002KT 29/16 A3011 RMK A01 T02860160  RH  046%=      5-min Rain = 0
KBY1 150131Z 12002KT 29/16 A3011 RMK A01 T02860158  RH  046%=      5-min Rain = 0
KBY1 150132Z 13002KT 29/16 A3011 RMK A01 T02860157  RH  046%=      5-min Rain = 0
KBY1 150133Z 13002KT 29/16 A3011 RMK A01 T02850157  RH  046%=      5-min Rain = 0
KBY1 150134Z 13003KT 29/16 A3011 RMK A01 T02850158  RH  046%=      5-min Rain = 0
KBY1 150135Z 14003KT 28/16 A3011 RMK A01 T02840156  RH  046%=      5-min Rain = 0
KBY1 150136Z 14003KT 28/16 A3011 RMK A01 T02840158  RH  046%=      5-min Rain = 0
KBY1 150137Z 14003KT 28/16 A3011 RMK A01 T02830158  RH  046%=      5-min Rain = 0
KBY1 150138Z 14003KT 28/16 A3011 RMK A01 T02830157  RH  046%=      5-min Rain = 0
KBY1 150139Z 13003KT 28/16 A3011 RMK A01 T02820158  RH  047%=      5-min Rain = 0
KBY1 150140Z 13003KT 28/16 A3011 RMK A01 T02820159  RH  047%=      5-min Rain = 0
KBY1 150141Z 12003KT 28/16 A3011 RMK A01 T02820159  RH  047%=      5-min Rain = 0
KBY1 150142Z 13002KT 28/16 A3011 RMK A01 T02820159  RH  047%=      5-min Rain = 0
KBY1 150143Z 12002KT 28/16 A3011 RMK A01 T02810158  RH  047%=      5-min Rain = 0
KBY1 150144Z 12003KT 28/16 A3011 RMK A01 T02810157  RH  047%=      5-min Rain = 0
KBY1 150145Z 13003KT 28/16 A3011 RMK A01 T02800157  RH  047%=      5-min Rain = 0
KBY1 150146Z 12003KT 28/16 A3011 RMK A01 T02800159  RH  048%=      5-min Rain = 0
KBY1 150147Z 12003KT 28/16 A3011 RMK A01 T02800160  RH  048%=      5-min Rain = 0
KBY1 150148Z 11002KT 28/16 A3011 RMK A01 T02800160  RH  048%=      5-min Rain = 0
KBY1 150149Z 12003KT 28/16 A3012 RMK A01 T02790160  RH  048%=      5-min Rain = 0
KBY1 150150Z 12003KT 28/16 A3012 RMK A01 T02790160  RH  048%=      5-min Rain = 0
KBY1 150151Z 12003KT 28/16 A3012 RMK A01 T02780161  RH  049%=      5-min Rain = 0
KBY1 150152Z 12002KT 28/16 A3012 RMK A01 T02770161  RH  049%=      5-min Rain = 0
KBY1 150153Z 12002KT 28/16 A3012 RMK A01 T02770159  RH  049%=      5-min Rain = 0
KBY1 150154Z 14002KT 28/16 A3012 RMK A01 T02770161  RH  049%=      5-min Rain = 0
KBY1 150155Z 15002KT 28/16 A3012 RMK A01 T02770159  RH  049%=      5-min Rain = 0
KBY1 150156Z 15001KT 28/16 A3012 RMK A01 T02760159  RH  049%=      5-min Rain = 0
KBY1 150157Z 15002KT 28/16 A3012 RMK A01 T02770158  RH  048%=      5-min Rain = 0
KBY1 150158Z 15001KT 28/16 A3012 RMK A01 T02770157  RH  048%=      5-min Rain = 0
KBY1 150159Z 15002KT 28/16 A3012 RMK A01 T02760159  RH  049%=      5-min Rain = 0
KBY1 150200Z 15001KT 28/16 A3012 RMK A01 T02760160  RH  049%=      5-min Rain = 0
KBY1 150201Z 15001KT 28/16 A3012 RMK A01 T02760156  RH  048%=      5-min Rain = 0
KBY1 150202Z 14000KT 28/15 A3012 RMK A01 T02760154  RH  047%=      5-min Rain = 0
KBY1 150203Z 12001KT 28/15 A3012 RMK A01 T02760154  RH  047%=      5-min Rain = 0
KBY1 150204Z 10001KT 28/16 A3012 RMK A01 T02770156  RH  048%=      5-min Rain = 0
KBY1 150205Z 10001KT 28/16 A3012 RMK A01 T02770157  RH  048%=      5-min Rain = 0
KBY1 150206Z 10001KT 28/16 A3012 RMK A01 T02770156  RH  048%=      5-min Rain = 0
KBY1 150207Z 09001KT 28/16 A3012 RMK A01 T02770155  RH  047%=      5-min Rain = 0
KBY1 150208Z 08001KT 28/16 A3012 RMK A01 T02770157  RH  048%=      5-min Rain = 0
KBY1 150209Z 08001KT 28/16 A3012 RMK A01 T02770156  RH  048%=      5-min Rain = 0
KBY1 150210Z 07002KT 28/16 A3012 RMK A01 T02770162  RH  050%=      5-min Rain = 0
KBY1 150211Z 08002KT 28/16 A3012 RMK A01 T02760164  RH  051%=      5-min Rain = 0
KBY1 150212Z 09002KT 28/17 A3012 RMK A01 T02750166  RH  052%=      5-min Rain = 0
KBY1 150213Z 09002KT 27/16 A3012 RMK A01 T02730164  RH  051%=      5-min Rain = 0
KBY1 150214Z 08002KT 27/16 A3012 RMK A01 T02730164  RH  051%=      5-min Rain = 0
KBY1 150215Z 07003KT 27/16 A3012 RMK A01 T02730164  RH  051%=      5-min Rain = 0
KBY1 150216Z 08004KT 27/16 A3012 RMK A01 T02730162  RH  051%=      5-min Rain = 0
KBY1 150217Z 08003KT 27/16 A3012 RMK A01 T02740161  RH  050%=      5-min Rain = 0
KBY1 150218Z 08004KT 27/17 A3012 RMK A01 T02740167  RH  052%=      5-min Rain = 0
KBY1 150219Z 09004KT 27/17 A3012 RMK A01 T02730167  RH  052%=      5-min Rain = 0
KBY1 150220Z 09004KT 27/17 A3012 RMK A01 T02720167  RH  053%=      5-min Rain = 0
KBY1 150221Z 09005KT 27/17 A3012 RMK A01 T02710166  RH  053%=      5-min Rain = 0
KBY1 150222Z 09005KT 27/17 A3012 RMK A01 T02700167  RH  053%=      5-min Rain = 0
KBY1 150223Z 09005KT 27/17 A3012 RMK A01 T02680166  RH  054%=      5-min Rain = 0
KBY1 150224Z 10005KT 27/17 A3012 RMK A01 T02670165  RH  053%=      5-min Rain = 0
KBY1 150225Z 10005KT 27/16 A3012 RMK A01 T02660164  RH  053%=      5-min Rain = 0
KBY1 150226Z 10005KT 27/16 A3012 RMK A01 T02660163  RH  053%=      5-min Rain = 0
KBY1 150227Z 10005KT 27/16 A3012 RMK A01 T02650162  RH  053%=      5-min Rain = 0
KBY1 150228Z 10005KT 27/16 A3012 RMK A01 T02650162  RH  053%=      5-min Rain = 0
KBY1 150229Z 10005KT 27/16 A3012 RMK A01 T02650161  RH  053%=      5-min Rain = 0
KBY1 150230Z 09004KT 27/16 A3012 RMK A01 T02650160  RH  052%=      5-min Rain = 0
KBY1 150231Z 09004KT 27/16 A3012 RMK A01 T02650159  RH  052%=      5-min Rain = 0
KBY1 150232Z 10005KT 27/16 A3012 RMK A01 T02650159  RH  052%=      5-min Rain = 0
KBY1 150233Z 09004KT 27/16 A3012 RMK A01 T02650158  RH  052%=      5-min Rain = 0
KBY1 150234Z 10004KT 27/16 A3012 RMK A01 T02660159  RH  052%=      5-min Rain = 0
KBY1 150235Z 10005KT 27/16 A3012 RMK A01 T02660160  RH  052%=      5-min Rain = 0
KBY1 150236Z 10004KT 27/16 A3012 RMK A01 T02660160  RH  052%=      5-min Rain = 0
KBY1 150237Z 10005KT 27/16 A3012 RMK A01 T02660159  RH  052%=      5-min Rain = 0
KBY1 150238Z 10005KT 27/16 A3012 RMK A01 T02660160  RH  052%=      5-min Rain = 0
KBY1 150239Z 10004KT 27/16 A3012 RMK A01 T02660160  RH  052%=      5-min Rain = 0
KBY1 150240Z 10004KT 27/16 A3012 RMK A01 T02650162  RH  053%=      5-min Rain = 0
KBY1 150241Z 10004KT 26/16 A3012 RMK A01 T02640162  RH  053%=      5-min Rain = 0
KBY1 150242Z 09004KT 26/16 A3013 RMK A01 T02640161  RH  053%=      5-min Rain = 0
KBY1 150243Z 10005KT 26/16 A3013 RMK A01 T02630161  RH  053%=      5-min Rain = 0
KBY1 150244Z 09005KT 26/16 A3013 RMK A01 T02630161  RH  054%=      5-min Rain = 0
KBY1 150245Z 09005KT 26/16 A3013 RMK A01 T02620160  RH  053%=      5-min Rain = 0
KBY1 150246Z 09005KT 26/16 A3013 RMK A01 T02620160  RH  053%=      5-min Rain = 0
KBY1 150247Z 08004KT 26/16 A3013 RMK A01 T02620160  RH  053%=      5-min Rain = 0
KBY1 150248Z 09004KT 26/16 A3013 RMK A01 T02620159  RH  053%=      5-min Rain = 0
KBY1 150249Z 09004KT 26/16 A3013 RMK A01 T02620159  RH  053%=      5-min Rain = 0
KBY1 150250Z 09004KT 26/16 A3013 RMK A01 T02620157  RH  052%=      5-min Rain = 0
KBY1 150251Z 10004KT 26/16 A3013 RMK A01 T02630155  RH  051%=      5-min Rain = 0
KBY1 150252Z 10004KT 26/16 A3013 RMK A01 T02640155  RH  051%=      5-min Rain = 0
KBY1 150253Z 10004KT 27/16 A3013 RMK A01 T02650155  RH  051%=      5-min Rain = 0
KBY1 150254Z 10004KT 27/16 A3013 RMK A01 T02650156  RH  051%=      5-min Rain = 0
KBY1 150255Z 10005KT 27/16 A3013 RMK A01 T02650156  RH  051%=      5-min Rain = 0
KBY1 150256Z 11004KT 27/16 A3013 RMK A01 T02650155  RH  051%=      5-min Rain = 0
KBY1 150257Z 10005KT 27/16 A3013 RMK A01 T02650156  RH  051%=      5-min Rain = 0
KBY1 150258Z 10005KT 27/16 A3013 RMK A01 T02650156  RH  051%=      5-min Rain = 0
KBY1 150259Z 10005KT 26/15 A3013 RMK A01 T02640154  RH  051%=      5-min Rain = 0
KBY1 150300Z 10006KT 26/15 A3013 RMK A01 T02640153  RH  050%=      5-min Rain = 0
KBY1 150301Z 10006KT 26/15 A3013 RMK A01 T02640152  RH  050%=      5-min Rain = 0
KBY1 150302Z 10006KT 26/15 A3013 RMK A01 T02640153  RH  050%=      5-min Rain = 0
KBY1 150303Z 09005KT 26/15 A3013 RMK A01 T02640154  RH  051%=      5-min Rain = 0
KBY1 150304Z 09006KT 26/15 A3013 RMK A01 T02640151  RH  050%=      5-min Rain = 0
KBY1 150305Z 09006KT 27/15 A3013 RMK A01 T02650152  RH  050%=      5-min Rain = 0
KBY1 150306Z 09006KT 27/15 A3014 RMK A01 T02650151  RH  050%=      5-min Rain = 0
KBY1 150307Z 09005KT 27/15 A3014 RMK A01 T02650151  RH  050%=      5-min Rain = 0
KBY1 150308Z 09006KT 27/15 A3014 RMK A01 T02650151  RH  050%=      5-min Rain = 0
KBY1 150309Z 08006KT 26/15 A3014 RMK A01 T02640151  RH  050%=      5-min Rain = 0
KBY1 150310Z 09006KT 26/15 A3014 RMK A01 T02640151  RH  050%=      5-min Rain = 0
KBY1 150311Z 09006KT 27/15 A3014 RMK A01 T02650151  RH  050%=      5-min Rain = 0
KBY1 150312Z 08005KT 26/15 A3014 RMK A01 T02640150  RH  050%=      5-min Rain = 0
KBY1 150313Z 08005KT 26/15 A3014 RMK A01 T02640151  RH  050%=      5-min Rain = 0
KBY1 150314Z 08005KT 26/15 A3014 RMK A01 T02640151  RH  050%=      5-min Rain = 0
KBY1 150315Z 08006KT 26/15 A3014 RMK A01 T02630151  RH  050%=      5-min Rain = 0
KBY1 150316Z 08005KT 26/15 A3014 RMK A01 T02630150  RH  050%=      5-min Rain = 0
KBY1 150317Z 08005KT 26/15 A3014 RMK A01 T02630150  RH  050%=      5-min Rain = 0
KBY1 150318Z 08005KT 26/15 A3014 RMK A01 T02640151  RH  050%=      5-min Rain = 0
KBY1 150319Z 08005KT 26/15 A3014 RMK A01 T02640152  RH  050%=      5-min Rain = 0
KBY1 150320Z 08005KT 26/15 A3014 RMK A01 T02630151  RH  050%=      5-min Rain = 0
KBY1 150321Z 07005KT 26/15 A3014 RMK A01 T02630152  RH  050%=      5-min Rain = 0
KBY1 150322Z 07005KT 26/15 A3015 RMK A01 T02630152  RH  050%=      5-min Rain = 0
KBY1 150323Z 08006KT 26/15 A3015 RMK A01 T02630152  RH  050%=      5-min Rain = 0
KBY1 150324Z 08005KT 26/15 A3015 RMK A01 T02630151  RH  050%=      5-min Rain = 0
KBY1 150325Z 08006KT 26/15 A3015 RMK A01 T02630152  RH  050%=      5-min Rain = 0
KBY1 150326Z 08005KT 26/15 A3015 RMK A01 T02630152  RH  050%=      5-min Rain = 0
KBY1 150327Z 08005KT 26/15 A3015 RMK A01 T02630151  RH  050%=      5-min Rain = 0
KBY1 150328Z 07005KT 26/15 A3015 RMK A01 T02630152  RH  050%=      5-min Rain = 0
KBY1 150329Z 08004KT 26/15 A3015 RMK A01 T02630152  RH  051%=      5-min Rain = 0
KBY1 150330Z 08005KT 26/15 A3015 RMK A01 T02620153  RH  051%=      5-min Rain = 0
KBY1 150331Z 08004KT 26/15 A3015 RMK A01 T02620152  RH  051%=      5-min Rain = 0
KBY1 150332Z 08004KT 26/15 A3015 RMK A01 T02620152  RH  051%=      5-min Rain = 0
KBY1 150333Z 08004KT 26/15 A3015 RMK A01 T02620152  RH  051%=      5-min Rain = 0
KBY1 150334Z 08004KT 26/15 A3015 RMK A01 T02620153  RH  051%=      5-min Rain = 0
KBY1 150335Z 08005KT 26/15 A3015 RMK A01 T02610152  RH  051%=      5-min Rain = 0
KBY1 150336Z 08004KT 26/15 A3015 RMK A01 T02610153  RH  052%=      5-min Rain = 0
KBY1 150337Z 07005KT 26/15 A3015 RMK A01 T02600153  RH  051%=      5-min Rain = 0
KBY1 150338Z 07005KT 26/15 A3015 RMK A01 T02600153  RH  052%=      5-min Rain = 0
KBY1 150339Z 07005KT 26/15 A3016 RMK A01 T02600152  RH  051%=      5-min Rain = 0
KBY1 150340Z 07005KT 26/15 A3016 RMK A01 T02600153  RH  052%=      5-min Rain = 0
KBY1 150341Z 07006KT 26/15 A3016 RMK A01 T02590153  RH  052%=      5-min Rain = 0
KBY1 150342Z 07006KT 26/15 A3016 RMK A01 T02590152  RH  051%=      5-min Rain = 0
KBY1 150343Z 07006KT 26/15 A3016 RMK A01 T02590151  RH  051%=      5-min Rain = 0
KBY1 150344Z 07006KT 26/15 A3016 RMK A01 T02600151  RH  051%=      5-min Rain = 0
KBY1 150345Z 07006KT 26/15 A3016 RMK A01 T02600151  RH  051%=      5-min Rain = 0
KBY1 150346Z 07006KT 26/15 A3016 RMK A01 T02600150  RH  051%=      5-min Rain = 0
KBY1 150347Z 07005KT 26/15 A3016 RMK A01 T02610149  RH  050%=      5-min Rain = 0
KBY1 150348Z 07005KT 26/15 A3016 RMK A01 T02610150  RH  050%=      5-min Rain = 0
KBY1 150349Z 07005KT 26/15 A3016 RMK A01 T02620150  RH  050%=      5-min Rain = 0
KBY1 150350Z 08005KT 26/15 A3016 RMK A01 T02620151  RH  050%=      5-min Rain = 0
KBY1 150351Z 08004KT 26/15 A3016 RMK A01 T02620151  RH  051%=      5-min Rain = 0
KBY1 150352Z 07004KT 26/15 A3016 RMK A01 T02610151  RH  051%=      5-min Rain = 0
KBY1 150353Z 07004KT 26/15 A3016 RMK A01 T02600152  RH  051%=      5-min Rain = 0
KBY1 150354Z 07005KT 26/15 A3016 RMK A01 T02600151  RH  051%=      5-min Rain = 0
KBY1 150355Z 07004KT 26/15 A3016 RMK A01 T02600150  RH  051%=      5-min Rain = 0
KBY1 150356Z 07004KT 26/15 A3016 RMK A01 T02600151  RH  051%=      5-min Rain = 0
KBY1 150357Z 07005KT 26/15 A3016 RMK A01 T02600152  RH  051%=      5-min Rain = 0
KBY1 150358Z 07005KT 26/15 A3016 RMK A01 T02590151  RH  051%=      5-min Rain = 0
KBY1 150359Z 07004KT 26/15 A3016 RMK A01 T02590151  RH  051%=      5-min Rain = 0
KBY1 150400Z 07005KT 26/15 A3016 RMK A01 T02590150  RH  051%=      5-min Rain = 0
KBY1 150401Z 07006KT 26/15 A3016 RMK A01 T02590150  RH  051%=      5-min Rain = 0
KBY1 150402Z 07006KT 26/15 A3016 RMK A01 T02590149  RH  051%=      5-min Rain = 0
KBY1 150403Z 07005KT 26/15 A3016 RMK A01 T02590150  RH  051%=      5-min Rain = 0
KBY1 150404Z 08006KT 26/15 A3016 RMK A01 T02600150  RH  051%=      5-min Rain = 0
KBY1 150405Z 08006KT 26/15 A3016 RMK A01 T02590150  RH  051%=      5-min Rain = 0
KBY1 150406Z 08006KT 26/15 A3016 RMK A01 T02590149  RH  051%=      5-min Rain = 0
KBY1 150407Z 08006KT 26/15 A3016 RMK A01 T02590149  RH  051%=      5-min Rain = 0
KBY1 150408Z 08006KT 26/15 A3016 RMK A01 T02590150  RH  051%=      5-min Rain = 0
KBY1 150409Z 08006KT 26/15 A3016 RMK A01 T02590151  RH  051%=      5-min Rain = 0
KBY1 150410Z 08006KT 26/15 A3016 RMK A01 T02580150  RH  051%=      5-min Rain = 0
KBY1 150411Z 09006KT 26/15 A3016 RMK A01 T02570150  RH  051%=      5-min Rain = 0
KBY1 150412Z 09006KT 26/15 A3016 RMK A01 T02560150  RH  052%=      5-min Rain = 0
KBY1 150413Z 09006KT 26/15 A3016 RMK A01 T02560150  RH  052%=      5-min Rain = 0
KBY1 150414Z 09006KT 26/15 A3016 RMK A01 T02560150  RH  052%=      5-min Rain = 0
KBY1 150415Z 09006KT 26/15 A3016 RMK A01 T02560150  RH  052%=      5-min Rain = 0
KBY1 150416Z 09006KT 26/15 A3016 RMK A01 T02550151  RH  052%=      5-min Rain = 0
KBY1 150417Z 10006KT 26/15 A3016 RMK A01 T02550150  RH  052%=      5-min Rain = 0
KBY1 150418Z 10006KT 26/15 A3016 RMK A01 T02550149  RH  052%=      5-min Rain = 0
KBY1 150419Z 10006KT 26/15 A3016 RMK A01 T02550150  RH  052%=      5-min Rain = 0
KBY1 150420Z 10006KT 25/15 A3016 RMK A01 T02540151  RH  053%=      5-min Rain = 0
KBY1 150421Z 10006KT 25/15 A3016 RMK A01 T02540151  RH  053%=      5-min Rain = 0
KBY1 150422Z 10005KT 25/15 A3016 RMK A01 T02530151  RH  053%=      5-min Rain = 0
KBY1 150423Z 10006KT 25/15 A3016 RMK A01 T02530151  RH  053%=      5-min Rain = 0
KBY1 150424Z 10005KT 25/15 A3016 RMK A01 T02530150  RH  053%=      5-min Rain = 0
KBY1 150425Z 10005KT 25/15 A3016 RMK A01 T02520150  RH  053%=      5-min Rain = 0
KBY1 150426Z 10005KT 25/15 A3016 RMK A01 T02520151  RH  053%=      5-min Rain = 0
KBY1 150427Z 10006KT 25/15 A3016 RMK A01 T02510150  RH  053%=      5-min Rain = 0
KBY1 150428Z 09006KT 25/15 A3016 RMK A01 T02520151  RH  053%=      5-min Rain = 0
KBY1 150429Z 10005KT 25/15 A3016 RMK A01 T02510151  RH  054%=      5-min Rain = 0
KBY1 150430Z 10005KT 25/15 A3016 RMK A01 T02510151  RH  054%=      5-min Rain = 0
KBY1 150431Z 10006KT 25/15 A3016 RMK A01 T02510151  RH  054%=      5-min Rain = 0
KBY1 150432Z 10006KT 25/15 A3016 RMK A01 T02500151  RH  054%=      5-min Rain = 0
KBY1 150433Z 10005KT 25/15 A3016 RMK A01 T02500151  RH  054%=      5-min Rain = 0
KBY1 150434Z 10006KT 25/15 A3016 RMK A01 T02500150  RH  054%=      5-min Rain = 0
KBY1 150435Z 10006KT 25/15 A3016 RMK A01 T02500150  RH  054%=      5-min Rain = 0
KBY1 150436Z 10006KT 25/15 A3016 RMK A01 T02500150  RH  054%=      5-min Rain = 0
KBY1 150437Z 10005KT 25/15 A3016 RMK A01 T02500151  RH  054%=      5-min Rain = 0
KBY1 150438Z 10005KT 25/15 A3016 RMK A01 T02500151  RH  054%=      5-min Rain = 0
KBY1 150439Z 09005KT 25/15 A3016 RMK A01 T02500151  RH  054%=      5-min Rain = 0
KBY1 150440Z 10006KT 25/15 A3016 RMK A01 T02500151  RH  054%=      5-min Rain = 0
KBY1 150441Z 09005KT 25/15 A3016 RMK A01 T02500150  RH  054%=      5-min Rain = 0
KBY1 150442Z 10005KT 25/15 A3016 RMK A01 T02500150  RH  054%=      5-min Rain = 0
KBY1 150443Z 10005KT 25/15 A3017 RMK A01 T02500151  RH  054%=      5-min Rain = 0
KBY1 150444Z 09005KT 25/15 A3016 RMK A01 T02500151  RH  054%=      5-min Rain = 0
KBY1 150445Z 09005KT 25/15 A3016 RMK A01 T02500151  RH  054%=      5-min Rain = 0
KBY1 150446Z 09005KT 25/15 A3016 RMK A01 T02490151  RH  054%=      5-min Rain = 0
KBY1 150447Z 09005KT 25/15 A3016 RMK A01 T02490151  RH  055%=      5-min Rain = 0
KBY1 150448Z 09005KT 25/15 A3016 RMK A01 T02480153  RH  055%=      5-min Rain = 0
KBY1 150449Z 09004KT 25/15 A3016 RMK A01 T02480153  RH  056%=      5-min Rain = 0
KBY1 150450Z 08005KT 25/15 A3016 RMK A01 T02470153  RH  056%=      5-min Rain = 0
KBY1 150451Z 08005KT 25/15 A3016 RMK A01 T02460152  RH  056%=      5-min Rain = 0
KBY1 150452Z 08005KT 25/15 A3016 RMK A01 T02450153  RH  056%=      5-min Rain = 0
KBY1 150453Z 08006KT 25/15 A3016 RMK A01 T02450152  RH  056%=      5-min Rain = 0
KBY1 150454Z 08006KT 25/15 A3016 RMK A01 T02450153  RH  056%=      5-min Rain = 0
KBY1 150455Z 07006KT 25/15 A3016 RMK A01 T02450152  RH  056%=      5-min Rain = 0
KBY1 150456Z 08006KT 25/15 A3016 RMK A01 T02450152  RH  056%=      5-min Rain = 0
KBY1 150457Z 08006KT 25/15 A3016 RMK A01 T02450152  RH  056%=      5-min Rain = 0
KBY1 150458Z 08006KT 25/15 A3016 RMK A01 T02450152  RH  056%=      5-min Rain = 0
KBY1 150459Z 08006KT 25/15 A3016 RMK A01 T02450152  RH  056%=      5-min Rain = 0

Page generated in 0.1256 seconds.